<?xml version="1.0" encoding="UTF-8" standalone="no" ?>
<gpx xmlns="http://www.topografix.com/GPX/1/1" xmlns:xsi="http://www.w3.org/2001/XMLSchema-instance" xsi:schemaLocation="http://www.topografix.com/GPX/1/1 http://www.topografix.com/GPX/1/1/gpx.xsd" version="1.1" creator="VisuGPX - https://www.visugpx.com">
  <metadata>
    <name>83-Me-Cotignac</name>
    <desc><![CDATA[83-Me-Cotignac : Gros Bessillon
2022-03-23]]></desc>
  </metadata>
  <trk>
    <name><![CDATA[2022-03-23-M Cotignac Gros Bessillon_corr]]></name>
    <extensions>
      <line xmlns="http://www.topografix.com/GPX/gpx_style/0/2">
        <width>4</width>
      </line>
    </extensions>
    <trkseg>
      <trkpt lat="43.53418" lon="6.12042">
        <ele>437.3</ele>
        <time>2022-03-23T13:24:37.778Z</time>
      </trkpt>
      <trkpt lat="43.53381" lon="6.12005">
        <ele>446.2</ele>
        <time>2022-03-23T13:25:52.116Z</time>
      </trkpt>
      <trkpt lat="43.53344" lon="6.11962">
        <ele>452.6</ele>
        <time>2022-03-23T13:27:09.754Z</time>
      </trkpt>
      <trkpt lat="43.5332" lon="6.11936">
        <ele>442.9</ele>
        <time>2022-03-23T13:28:00.566Z</time>
      </trkpt>
      <trkpt lat="43.53303" lon="6.11935">
        <ele>440.2</ele>
        <time>2022-03-23T13:28:28.897Z</time>
      </trkpt>
      <trkpt lat="43.53273" lon="6.11943">
        <ele>446.3</ele>
        <time>2022-03-23T13:29:18.726Z</time>
      </trkpt>
      <trkpt lat="43.53251" lon="6.11946">
        <ele>436.4</ele>
        <time>2022-03-23T13:29:56.000Z</time>
      </trkpt>
      <trkpt lat="43.53251" lon="6.11944">
        <ele>436</ele>
        <time>2022-03-23T13:29:57.000Z</time>
      </trkpt>
      <trkpt lat="43.53243" lon="6.11935">
        <ele>434</ele>
        <time>2022-03-23T13:30:17.000Z</time>
      </trkpt>
      <trkpt lat="43.53238" lon="6.11917">
        <ele>433.4</ele>
        <time>2022-03-23T13:30:26.000Z</time>
      </trkpt>
      <trkpt lat="43.53234" lon="6.11906">
        <ele>432.8</ele>
        <time>2022-03-23T13:30:34.000Z</time>
      </trkpt>
      <trkpt lat="43.53225" lon="6.11899">
        <ele>432.3</ele>
        <time>2022-03-23T13:30:41.000Z</time>
      </trkpt>
      <trkpt lat="43.53221" lon="6.11887">
        <ele>430.2</ele>
        <time>2022-03-23T13:31:06.000Z</time>
      </trkpt>
      <trkpt lat="43.53214" lon="6.11876">
        <ele>429</ele>
        <time>2022-03-23T13:31:21.000Z</time>
      </trkpt>
      <trkpt lat="43.53203" lon="6.11867">
        <ele>428</ele>
        <time>2022-03-23T13:31:31.000Z</time>
      </trkpt>
      <trkpt lat="43.53191" lon="6.11864">
        <ele>428.2</ele>
        <time>2022-03-23T13:31:39.000Z</time>
      </trkpt>
      <trkpt lat="43.5318" lon="6.11866">
        <ele>427.3</ele>
        <time>2022-03-23T13:31:47.000Z</time>
      </trkpt>
      <trkpt lat="43.53171" lon="6.11863">
        <ele>426.9</ele>
        <time>2022-03-23T13:32:22.000Z</time>
      </trkpt>
      <trkpt lat="43.53163" lon="6.11854">
        <ele>426.8</ele>
        <time>2022-03-23T13:32:30.000Z</time>
      </trkpt>
      <trkpt lat="43.53157" lon="6.11845">
        <ele>427</ele>
        <time>2022-03-23T13:32:35.000Z</time>
      </trkpt>
      <trkpt lat="43.5315" lon="6.11835">
        <ele>427.7</ele>
        <time>2022-03-23T13:32:43.000Z</time>
      </trkpt>
      <trkpt lat="43.53145" lon="6.11825">
        <ele>428.2</ele>
        <time>2022-03-23T13:33:01.000Z</time>
      </trkpt>
      <trkpt lat="43.53145" lon="6.11812">
        <ele>427.9</ele>
        <time>2022-03-23T13:33:11.000Z</time>
      </trkpt>
      <trkpt lat="43.53146" lon="6.11799">
        <ele>429.5</ele>
        <time>2022-03-23T13:33:20.000Z</time>
      </trkpt>
      <trkpt lat="43.53144" lon="6.11787">
        <ele>429.2</ele>
        <time>2022-03-23T13:33:28.000Z</time>
      </trkpt>
      <trkpt lat="43.53136" lon="6.11778">
        <ele>429.3</ele>
        <time>2022-03-23T13:33:37.000Z</time>
      </trkpt>
      <trkpt lat="43.5313" lon="6.11768">
        <ele>430.4</ele>
        <time>2022-03-23T13:33:45.000Z</time>
      </trkpt>
      <trkpt lat="43.53124" lon="6.11758">
        <ele>430.2</ele>
        <time>2022-03-23T13:33:50.000Z</time>
      </trkpt>
      <trkpt lat="43.5312" lon="6.11746">
        <ele>431.2</ele>
        <time>2022-03-23T13:33:54.000Z</time>
      </trkpt>
      <trkpt lat="43.53116" lon="6.11733">
        <ele>431.5</ele>
        <time>2022-03-23T13:34:03.000Z</time>
      </trkpt>
      <trkpt lat="43.53114" lon="6.11721">
        <ele>433.6</ele>
        <time>2022-03-23T13:34:09.000Z</time>
      </trkpt>
      <trkpt lat="43.53117" lon="6.11708">
        <ele>432.8</ele>
        <time>2022-03-23T13:34:18.000Z</time>
      </trkpt>
      <trkpt lat="43.53117" lon="6.11694">
        <ele>432.6</ele>
        <time>2022-03-23T13:34:27.000Z</time>
      </trkpt>
      <trkpt lat="43.53113" lon="6.11681">
        <ele>433</ele>
        <time>2022-03-23T13:34:36.000Z</time>
      </trkpt>
      <trkpt lat="43.53106" lon="6.11672">
        <ele>433.6</ele>
        <time>2022-03-23T13:34:43.000Z</time>
      </trkpt>
      <trkpt lat="43.53097" lon="6.11668">
        <ele>431.3</ele>
        <time>2022-03-23T13:34:55.000Z</time>
      </trkpt>
      <trkpt lat="43.53088" lon="6.11662">
        <ele>433.9</ele>
        <time>2022-03-23T13:35:18.000Z</time>
      </trkpt>
      <trkpt lat="43.53081" lon="6.11655">
        <ele>434.7</ele>
        <time>2022-03-23T13:35:25.000Z</time>
      </trkpt>
      <trkpt lat="43.53073" lon="6.11644">
        <ele>435.3</ele>
        <time>2022-03-23T13:35:32.000Z</time>
      </trkpt>
      <trkpt lat="43.53067" lon="6.11633">
        <ele>436.3</ele>
        <time>2022-03-23T13:35:40.000Z</time>
      </trkpt>
      <trkpt lat="43.53067" lon="6.1162">
        <ele>436</ele>
        <time>2022-03-23T13:35:50.000Z</time>
      </trkpt>
      <trkpt lat="43.53071" lon="6.11608">
        <ele>434.8</ele>
        <time>2022-03-23T13:36:01.000Z</time>
      </trkpt>
      <trkpt lat="43.53077" lon="6.11596">
        <ele>435.8</ele>
        <time>2022-03-23T13:36:11.000Z</time>
      </trkpt>
      <trkpt lat="43.5308" lon="6.11584">
        <ele>436.5</ele>
        <time>2022-03-23T13:36:20.000Z</time>
      </trkpt>
      <trkpt lat="43.53078" lon="6.1157">
        <ele>437.2</ele>
        <time>2022-03-23T13:36:29.000Z</time>
      </trkpt>
      <trkpt lat="43.53071" lon="6.11562">
        <ele>438.8</ele>
        <time>2022-03-23T13:36:38.000Z</time>
      </trkpt>
      <trkpt lat="43.53063" lon="6.11554">
        <ele>439.5</ele>
        <time>2022-03-23T13:36:44.000Z</time>
      </trkpt>
      <trkpt lat="43.53055" lon="6.11548">
        <ele>438.3</ele>
        <time>2022-03-23T13:36:52.000Z</time>
      </trkpt>
      <trkpt lat="43.53049" lon="6.11538">
        <ele>438.8</ele>
        <time>2022-03-23T13:36:59.000Z</time>
      </trkpt>
      <trkpt lat="43.53044" lon="6.11527">
        <ele>440.7</ele>
        <time>2022-03-23T13:37:06.000Z</time>
      </trkpt>
      <trkpt lat="43.53041" lon="6.11515">
        <ele>440.6</ele>
        <time>2022-03-23T13:37:15.000Z</time>
      </trkpt>
      <trkpt lat="43.53042" lon="6.11501">
        <ele>441.2</ele>
        <time>2022-03-23T13:37:25.000Z</time>
      </trkpt>
      <trkpt lat="43.53047" lon="6.11489">
        <ele>442.8</ele>
        <time>2022-03-23T13:37:35.000Z</time>
      </trkpt>
      <trkpt lat="43.53051" lon="6.11479">
        <ele>441.8</ele>
        <time>2022-03-23T13:37:46.000Z</time>
      </trkpt>
      <trkpt lat="43.53059" lon="6.1147">
        <ele>442</ele>
        <time>2022-03-23T13:37:55.000Z</time>
      </trkpt>
      <trkpt lat="43.53066" lon="6.1146">
        <ele>442.2</ele>
        <time>2022-03-23T13:38:08.000Z</time>
      </trkpt>
      <trkpt lat="43.53073" lon="6.1145">
        <ele>443.1</ele>
        <time>2022-03-23T13:38:17.000Z</time>
      </trkpt>
      <trkpt lat="43.5308" lon="6.1144">
        <ele>444</ele>
        <time>2022-03-23T13:38:27.000Z</time>
      </trkpt>
      <trkpt lat="43.53087" lon="6.11431">
        <ele>442.5</ele>
        <time>2022-03-23T13:38:35.000Z</time>
      </trkpt>
      <trkpt lat="43.53094" lon="6.11423">
        <ele>445.6</ele>
        <time>2022-03-23T13:38:41.000Z</time>
      </trkpt>
      <trkpt lat="43.53099" lon="6.11412">
        <ele>444.6</ele>
        <time>2022-03-23T13:38:52.000Z</time>
      </trkpt>
      <trkpt lat="43.53107" lon="6.11406">
        <ele>446.5</ele>
        <time>2022-03-23T13:39:01.000Z</time>
      </trkpt>
      <trkpt lat="43.53115" lon="6.11397">
        <ele>446.9</ele>
        <time>2022-03-23T13:39:10.000Z</time>
      </trkpt>
      <trkpt lat="43.53122" lon="6.11388">
        <ele>447</ele>
        <time>2022-03-23T13:39:19.000Z</time>
      </trkpt>
      <trkpt lat="43.5313" lon="6.1138">
        <ele>447</ele>
        <time>2022-03-23T13:39:29.000Z</time>
      </trkpt>
      <trkpt lat="43.53137" lon="6.11371">
        <ele>448.5</ele>
        <time>2022-03-23T13:39:37.000Z</time>
      </trkpt>
      <trkpt lat="43.53144" lon="6.11362">
        <ele>449.4</ele>
        <time>2022-03-23T13:39:46.000Z</time>
      </trkpt>
      <trkpt lat="43.53151" lon="6.11352">
        <ele>450</ele>
        <time>2022-03-23T13:39:55.000Z</time>
      </trkpt>
      <trkpt lat="43.53156" lon="6.1134">
        <ele>449.8</ele>
        <time>2022-03-23T13:40:03.000Z</time>
      </trkpt>
      <trkpt lat="43.53161" lon="6.1133">
        <ele>450.3</ele>
        <time>2022-03-23T13:40:11.000Z</time>
      </trkpt>
      <trkpt lat="43.53166" lon="6.11319">
        <ele>450.5</ele>
        <time>2022-03-23T13:40:20.000Z</time>
      </trkpt>
      <trkpt lat="43.53172" lon="6.11307">
        <ele>451.4</ele>
        <time>2022-03-23T13:40:27.000Z</time>
      </trkpt>
      <trkpt lat="43.53173" lon="6.11294">
        <ele>450.9</ele>
        <time>2022-03-23T13:40:34.000Z</time>
      </trkpt>
      <trkpt lat="43.53177" lon="6.11281">
        <ele>451.2</ele>
        <time>2022-03-23T13:40:41.000Z</time>
      </trkpt>
      <trkpt lat="43.5318" lon="6.11268">
        <ele>452.5</ele>
        <time>2022-03-23T13:40:47.000Z</time>
      </trkpt>
      <trkpt lat="43.53182" lon="6.11255">
        <ele>452.2</ele>
        <time>2022-03-23T13:40:54.000Z</time>
      </trkpt>
      <trkpt lat="43.53184" lon="6.1124">
        <ele>452.8</ele>
        <time>2022-03-23T13:40:59.000Z</time>
      </trkpt>
      <trkpt lat="43.53184" lon="6.11227">
        <ele>452</ele>
        <time>2022-03-23T13:41:04.000Z</time>
      </trkpt>
      <trkpt lat="43.53187" lon="6.11215">
        <ele>452.2</ele>
        <time>2022-03-23T13:41:10.000Z</time>
      </trkpt>
      <trkpt lat="43.53187" lon="6.112">
        <ele>451.9</ele>
        <time>2022-03-23T13:41:17.000Z</time>
      </trkpt>
      <trkpt lat="43.53186" lon="6.11186">
        <ele>453.9</ele>
        <time>2022-03-23T13:41:23.000Z</time>
      </trkpt>
      <trkpt lat="43.53188" lon="6.11174">
        <ele>455.9</ele>
        <time>2022-03-23T13:41:29.000Z</time>
      </trkpt>
      <trkpt lat="43.5318" lon="6.11166">
        <ele>456.2</ele>
        <time>2022-03-23T13:41:52.000Z</time>
      </trkpt>
      <trkpt lat="43.53185" lon="6.11155">
        <ele>456.1</ele>
        <time>2022-03-23T13:41:57.000Z</time>
      </trkpt>
      <trkpt lat="43.53192" lon="6.11147">
        <ele>455.9</ele>
        <time>2022-03-23T13:42:02.000Z</time>
      </trkpt>
      <trkpt lat="43.53198" lon="6.11138">
        <ele>455</ele>
        <time>2022-03-23T13:42:13.000Z</time>
      </trkpt>
      <trkpt lat="43.532" lon="6.11124">
        <ele>455.6</ele>
        <time>2022-03-23T13:42:23.000Z</time>
      </trkpt>
      <trkpt lat="43.53198" lon="6.1111">
        <ele>455.7</ele>
        <time>2022-03-23T13:42:33.000Z</time>
      </trkpt>
      <trkpt lat="43.53195" lon="6.11098">
        <ele>456.6</ele>
        <time>2022-03-23T13:42:42.000Z</time>
      </trkpt>
      <trkpt lat="43.53192" lon="6.11086">
        <ele>458.2</ele>
        <time>2022-03-23T13:42:49.000Z</time>
      </trkpt>
      <trkpt lat="43.5319" lon="6.11073">
        <ele>458.4</ele>
        <time>2022-03-23T13:42:57.000Z</time>
      </trkpt>
      <trkpt lat="43.53187" lon="6.1106">
        <ele>457.4</ele>
        <time>2022-03-23T13:43:05.000Z</time>
      </trkpt>
      <trkpt lat="43.53186" lon="6.11047">
        <ele>457.8</ele>
        <time>2022-03-23T13:43:14.000Z</time>
      </trkpt>
      <trkpt lat="43.53183" lon="6.11035">
        <ele>458.5</ele>
        <time>2022-03-23T13:43:20.000Z</time>
      </trkpt>
      <trkpt lat="43.53177" lon="6.11024">
        <ele>456.9</ele>
        <time>2022-03-23T13:43:28.000Z</time>
      </trkpt>
      <trkpt lat="43.53173" lon="6.11013">
        <ele>457.9</ele>
        <time>2022-03-23T13:43:35.000Z</time>
      </trkpt>
      <trkpt lat="43.5317" lon="6.11001">
        <ele>458.4</ele>
        <time>2022-03-23T13:43:42.000Z</time>
      </trkpt>
      <trkpt lat="43.53169" lon="6.10988">
        <ele>459.3</ele>
        <time>2022-03-23T13:43:51.000Z</time>
      </trkpt>
      <trkpt lat="43.53166" lon="6.10974">
        <ele>458.3</ele>
        <time>2022-03-23T13:44:01.000Z</time>
      </trkpt>
      <trkpt lat="43.53165" lon="6.1096">
        <ele>459</ele>
        <time>2022-03-23T13:44:10.000Z</time>
      </trkpt>
      <trkpt lat="43.53162" lon="6.10948">
        <ele>459.9</ele>
        <time>2022-03-23T13:44:19.000Z</time>
      </trkpt>
      <trkpt lat="43.53158" lon="6.10936">
        <ele>461</ele>
        <time>2022-03-23T13:44:27.000Z</time>
      </trkpt>
      <trkpt lat="43.53153" lon="6.10926">
        <ele>461.8</ele>
        <time>2022-03-23T13:44:34.000Z</time>
      </trkpt>
      <trkpt lat="43.53147" lon="6.10916">
        <ele>462.4</ele>
        <time>2022-03-23T13:44:41.000Z</time>
      </trkpt>
      <trkpt lat="43.53141" lon="6.10905">
        <ele>462.6</ele>
        <time>2022-03-23T13:44:48.000Z</time>
      </trkpt>
      <trkpt lat="43.53136" lon="6.10892">
        <ele>463.2</ele>
        <time>2022-03-23T13:44:57.000Z</time>
      </trkpt>
      <trkpt lat="43.5313" lon="6.10882">
        <ele>462</ele>
        <time>2022-03-23T13:45:05.000Z</time>
      </trkpt>
      <trkpt lat="43.53124" lon="6.1087">
        <ele>463.6</ele>
        <time>2022-03-23T13:45:14.000Z</time>
      </trkpt>
      <trkpt lat="43.5312" lon="6.10859">
        <ele>463.3</ele>
        <time>2022-03-23T13:45:22.000Z</time>
      </trkpt>
      <trkpt lat="43.53118" lon="6.10846">
        <ele>462.7</ele>
        <time>2022-03-23T13:45:31.000Z</time>
      </trkpt>
      <trkpt lat="43.53118" lon="6.10833">
        <ele>464.5</ele>
        <time>2022-03-23T13:45:39.000Z</time>
      </trkpt>
      <trkpt lat="43.5312" lon="6.1082">
        <ele>464.8</ele>
        <time>2022-03-23T13:45:47.000Z</time>
      </trkpt>
      <trkpt lat="43.53121" lon="6.10807">
        <ele>465.4</ele>
        <time>2022-03-23T13:45:56.000Z</time>
      </trkpt>
      <trkpt lat="43.53122" lon="6.10794">
        <ele>465.7</ele>
        <time>2022-03-23T13:46:05.000Z</time>
      </trkpt>
      <trkpt lat="43.53116" lon="6.10783">
        <ele>466.6</ele>
        <time>2022-03-23T13:46:13.000Z</time>
      </trkpt>
      <trkpt lat="43.53108" lon="6.10774">
        <ele>466.9</ele>
        <time>2022-03-23T13:46:20.000Z</time>
      </trkpt>
      <trkpt lat="43.531" lon="6.10768">
        <ele>466.7</ele>
        <time>2022-03-23T13:46:28.000Z</time>
      </trkpt>
      <trkpt lat="43.53091" lon="6.10761">
        <ele>467.8</ele>
        <time>2022-03-23T13:46:37.000Z</time>
      </trkpt>
      <trkpt lat="43.53084" lon="6.10753">
        <ele>468.6</ele>
        <time>2022-03-23T13:46:43.000Z</time>
      </trkpt>
      <trkpt lat="43.53076" lon="6.10745">
        <ele>468.6</ele>
        <time>2022-03-23T13:46:50.000Z</time>
      </trkpt>
      <trkpt lat="43.53067" lon="6.10738">
        <ele>468.8</ele>
        <time>2022-03-23T13:46:59.000Z</time>
      </trkpt>
      <trkpt lat="43.53059" lon="6.10732">
        <ele>469.3</ele>
        <time>2022-03-23T13:47:05.000Z</time>
      </trkpt>
      <trkpt lat="43.53055" lon="6.10721">
        <ele>468.7</ele>
        <time>2022-03-23T13:47:15.000Z</time>
      </trkpt>
      <trkpt lat="43.53061" lon="6.10711">
        <ele>467.8</ele>
        <time>2022-03-23T13:49:37.000Z</time>
      </trkpt>
      <trkpt lat="43.53069" lon="6.10705">
        <ele>467.6</ele>
        <time>2022-03-23T13:49:46.000Z</time>
      </trkpt>
      <trkpt lat="43.53077" lon="6.10696">
        <ele>466.8</ele>
        <time>2022-03-23T13:50:22.000Z</time>
      </trkpt>
      <trkpt lat="43.53086" lon="6.10689">
        <ele>466.8</ele>
        <time>2022-03-23T13:50:32.000Z</time>
      </trkpt>
      <trkpt lat="43.53094" lon="6.10681">
        <ele>466.8</ele>
        <time>2022-03-23T13:50:40.000Z</time>
      </trkpt>
      <trkpt lat="43.53102" lon="6.10674">
        <ele>467.1</ele>
        <time>2022-03-23T13:50:46.000Z</time>
      </trkpt>
      <trkpt lat="43.53111" lon="6.10667">
        <ele>466.6</ele>
        <time>2022-03-23T13:50:54.000Z</time>
      </trkpt>
      <trkpt lat="43.53118" lon="6.10657">
        <ele>467</ele>
        <time>2022-03-23T13:51:01.000Z</time>
      </trkpt>
      <trkpt lat="43.53126" lon="6.10649">
        <ele>466.5</ele>
        <time>2022-03-23T13:51:08.000Z</time>
      </trkpt>
      <trkpt lat="43.53132" lon="6.1064">
        <ele>465.7</ele>
        <time>2022-03-23T13:51:16.000Z</time>
      </trkpt>
      <trkpt lat="43.5314" lon="6.10634">
        <ele>466.7</ele>
        <time>2022-03-23T13:51:24.000Z</time>
      </trkpt>
      <trkpt lat="43.53148" lon="6.10626">
        <ele>467.1</ele>
        <time>2022-03-23T13:51:31.000Z</time>
      </trkpt>
      <trkpt lat="43.53156" lon="6.10621">
        <ele>467.1</ele>
        <time>2022-03-23T13:51:39.000Z</time>
      </trkpt>
      <trkpt lat="43.53166" lon="6.10618">
        <ele>466.6</ele>
        <time>2022-03-23T13:51:48.000Z</time>
      </trkpt>
      <trkpt lat="43.53177" lon="6.10614">
        <ele>466</ele>
        <time>2022-03-23T13:51:57.000Z</time>
      </trkpt>
      <trkpt lat="43.53187" lon="6.10608">
        <ele>466.4</ele>
        <time>2022-03-23T13:52:06.000Z</time>
      </trkpt>
      <trkpt lat="43.53196" lon="6.106">
        <ele>466.5</ele>
        <time>2022-03-23T13:52:15.000Z</time>
      </trkpt>
      <trkpt lat="43.53205" lon="6.10594">
        <ele>466.3</ele>
        <time>2022-03-23T13:52:26.000Z</time>
      </trkpt>
      <trkpt lat="43.53213" lon="6.10588">
        <ele>467.3</ele>
        <time>2022-03-23T13:52:32.000Z</time>
      </trkpt>
      <trkpt lat="43.53223" lon="6.10581">
        <ele>467.6</ele>
        <time>2022-03-23T13:52:42.000Z</time>
      </trkpt>
      <trkpt lat="43.53231" lon="6.10575">
        <ele>469.2</ele>
        <time>2022-03-23T13:52:49.000Z</time>
      </trkpt>
      <trkpt lat="43.53239" lon="6.10564">
        <ele>468.1</ele>
        <time>2022-03-23T13:52:58.000Z</time>
      </trkpt>
      <trkpt lat="43.53242" lon="6.10551">
        <ele>468.4</ele>
        <time>2022-03-23T13:53:02.000Z</time>
      </trkpt>
      <trkpt lat="43.53241" lon="6.10537">
        <ele>467</ele>
        <time>2022-03-23T13:53:08.000Z</time>
      </trkpt>
      <trkpt lat="43.53233" lon="6.10529">
        <ele>467.9</ele>
        <time>2022-03-23T13:53:14.000Z</time>
      </trkpt>
      <trkpt lat="43.53223" lon="6.10527">
        <ele>465.8</ele>
        <time>2022-03-23T13:53:25.000Z</time>
      </trkpt>
      <trkpt lat="43.53213" lon="6.10524">
        <ele>465.6</ele>
        <time>2022-03-23T13:53:32.000Z</time>
      </trkpt>
      <trkpt lat="43.53204" lon="6.10523">
        <ele>465</ele>
        <time>2022-03-23T13:53:39.000Z</time>
      </trkpt>
      <trkpt lat="43.53195" lon="6.10526">
        <ele>463.9</ele>
        <time>2022-03-23T13:53:48.000Z</time>
      </trkpt>
      <trkpt lat="43.53186" lon="6.10528">
        <ele>464.2</ele>
        <time>2022-03-23T13:53:54.000Z</time>
      </trkpt>
      <trkpt lat="43.53176" lon="6.1053">
        <ele>462.8</ele>
        <time>2022-03-23T13:54:05.000Z</time>
      </trkpt>
      <trkpt lat="43.53167" lon="6.10527">
        <ele>462.6</ele>
        <time>2022-03-23T13:54:13.000Z</time>
      </trkpt>
      <trkpt lat="43.53155" lon="6.10525">
        <ele>461</ele>
        <time>2022-03-23T13:54:23.000Z</time>
      </trkpt>
      <trkpt lat="43.53146" lon="6.10524">
        <ele>461</ele>
        <time>2022-03-23T13:54:28.000Z</time>
      </trkpt>
      <trkpt lat="43.53136" lon="6.10527">
        <ele>461.3</ele>
        <time>2022-03-23T13:54:38.000Z</time>
      </trkpt>
      <trkpt lat="43.53125" lon="6.10529">
        <ele>462.2</ele>
        <time>2022-03-23T13:54:44.000Z</time>
      </trkpt>
      <trkpt lat="43.53115" lon="6.10531">
        <ele>460.8</ele>
        <time>2022-03-23T13:54:53.000Z</time>
      </trkpt>
      <trkpt lat="43.53105" lon="6.1053">
        <ele>461</ele>
        <time>2022-03-23T13:54:59.000Z</time>
      </trkpt>
      <trkpt lat="43.53096" lon="6.10523">
        <ele>460</ele>
        <time>2022-03-23T13:55:08.000Z</time>
      </trkpt>
      <trkpt lat="43.53093" lon="6.10511">
        <ele>460.2</ele>
        <time>2022-03-23T13:55:18.000Z</time>
      </trkpt>
      <trkpt lat="43.53093" lon="6.10497">
        <ele>461.1</ele>
        <time>2022-03-23T13:55:28.000Z</time>
      </trkpt>
      <trkpt lat="43.53093" lon="6.10483">
        <ele>461.7</ele>
        <time>2022-03-23T13:55:37.000Z</time>
      </trkpt>
      <trkpt lat="43.53093" lon="6.1047">
        <ele>462</ele>
        <time>2022-03-23T13:55:43.000Z</time>
      </trkpt>
      <trkpt lat="43.53093" lon="6.10457">
        <ele>461.1</ele>
        <time>2022-03-23T13:55:53.000Z</time>
      </trkpt>
      <trkpt lat="43.53094" lon="6.10444">
        <ele>461</ele>
        <time>2022-03-23T13:56:02.000Z</time>
      </trkpt>
      <trkpt lat="43.53095" lon="6.10431">
        <ele>461.1</ele>
        <time>2022-03-23T13:56:09.000Z</time>
      </trkpt>
      <trkpt lat="43.53094" lon="6.10418">
        <ele>460.2</ele>
        <time>2022-03-23T13:56:17.000Z</time>
      </trkpt>
      <trkpt lat="43.53094" lon="6.10405">
        <ele>459.2</ele>
        <time>2022-03-23T13:56:26.000Z</time>
      </trkpt>
      <trkpt lat="43.53094" lon="6.10392">
        <ele>459.9</ele>
        <time>2022-03-23T13:56:32.000Z</time>
      </trkpt>
      <trkpt lat="43.53096" lon="6.10379">
        <ele>459.7</ele>
        <time>2022-03-23T13:56:41.000Z</time>
      </trkpt>
      <trkpt lat="43.53098" lon="6.10365">
        <ele>459.7</ele>
        <time>2022-03-23T13:56:50.000Z</time>
      </trkpt>
      <trkpt lat="43.53101" lon="6.1035">
        <ele>459.2</ele>
        <time>2022-03-23T13:56:59.000Z</time>
      </trkpt>
      <trkpt lat="43.53105" lon="6.10339">
        <ele>459.1</ele>
        <time>2022-03-23T13:57:07.000Z</time>
      </trkpt>
      <trkpt lat="43.5311" lon="6.10329">
        <ele>459.7</ele>
        <time>2022-03-23T13:57:15.000Z</time>
      </trkpt>
      <trkpt lat="43.53116" lon="6.10319">
        <ele>460.2</ele>
        <time>2022-03-23T13:57:25.000Z</time>
      </trkpt>
      <trkpt lat="43.53123" lon="6.10309">
        <ele>460.3</ele>
        <time>2022-03-23T13:57:34.000Z</time>
      </trkpt>
      <trkpt lat="43.53131" lon="6.103">
        <ele>460.9</ele>
        <time>2022-03-23T13:57:43.000Z</time>
      </trkpt>
      <trkpt lat="43.5314" lon="6.10293">
        <ele>461.4</ele>
        <time>2022-03-23T13:57:54.000Z</time>
      </trkpt>
      <trkpt lat="43.53148" lon="6.10284">
        <ele>461.1</ele>
        <time>2022-03-23T13:58:03.000Z</time>
      </trkpt>
      <trkpt lat="43.53157" lon="6.10277">
        <ele>461.1</ele>
        <time>2022-03-23T13:58:12.000Z</time>
      </trkpt>
      <trkpt lat="43.53166" lon="6.1027">
        <ele>462</ele>
        <time>2022-03-23T13:58:20.000Z</time>
      </trkpt>
      <trkpt lat="43.53175" lon="6.10262">
        <ele>462.4</ele>
        <time>2022-03-23T13:58:28.000Z</time>
      </trkpt>
      <trkpt lat="43.53183" lon="6.10257">
        <ele>463.8</ele>
        <time>2022-03-23T13:58:34.000Z</time>
      </trkpt>
      <trkpt lat="43.53189" lon="6.10245">
        <ele>463.5</ele>
        <time>2022-03-23T13:58:43.000Z</time>
      </trkpt>
      <trkpt lat="43.5319" lon="6.10232">
        <ele>465.6</ele>
        <time>2022-03-23T13:58:49.000Z</time>
      </trkpt>
      <trkpt lat="43.53187" lon="6.10219">
        <ele>464.6</ele>
        <time>2022-03-23T13:58:58.000Z</time>
      </trkpt>
      <trkpt lat="43.53185" lon="6.10207">
        <ele>465.3</ele>
        <time>2022-03-23T13:59:06.000Z</time>
      </trkpt>
      <trkpt lat="43.53183" lon="6.10193">
        <ele>466.2</ele>
        <time>2022-03-23T13:59:14.000Z</time>
      </trkpt>
      <trkpt lat="43.5318" lon="6.10179">
        <ele>464.5</ele>
        <time>2022-03-23T13:59:24.000Z</time>
      </trkpt>
      <trkpt lat="43.53177" lon="6.10167">
        <ele>465.6</ele>
        <time>2022-03-23T13:59:32.000Z</time>
      </trkpt>
      <trkpt lat="43.53174" lon="6.10155">
        <ele>465.2</ele>
        <time>2022-03-23T13:59:40.000Z</time>
      </trkpt>
      <trkpt lat="43.53173" lon="6.10142">
        <ele>466.8</ele>
        <time>2022-03-23T13:59:48.000Z</time>
      </trkpt>
      <trkpt lat="43.53172" lon="6.10128">
        <ele>467.3</ele>
        <time>2022-03-23T13:59:57.000Z</time>
      </trkpt>
      <trkpt lat="43.53172" lon="6.10114">
        <ele>467.3</ele>
        <time>2022-03-23T14:00:06.000Z</time>
      </trkpt>
      <trkpt lat="43.5317" lon="6.10101">
        <ele>467.7</ele>
        <time>2022-03-23T14:00:14.000Z</time>
      </trkpt>
      <trkpt lat="43.53167" lon="6.10088">
        <ele>468.3</ele>
        <time>2022-03-23T14:00:23.000Z</time>
      </trkpt>
      <trkpt lat="43.53166" lon="6.10075">
        <ele>469</ele>
        <time>2022-03-23T14:00:32.000Z</time>
      </trkpt>
      <trkpt lat="43.53166" lon="6.10061">
        <ele>471.2</ele>
        <time>2022-03-23T14:00:42.000Z</time>
      </trkpt>
      <trkpt lat="43.53166" lon="6.10048">
        <ele>471.1</ele>
        <time>2022-03-23T14:00:52.000Z</time>
      </trkpt>
      <trkpt lat="43.53168" lon="6.10036">
        <ele>472.9</ele>
        <time>2022-03-23T14:01:00.000Z</time>
      </trkpt>
      <trkpt lat="43.53169" lon="6.10023">
        <ele>473.5</ele>
        <time>2022-03-23T14:01:10.000Z</time>
      </trkpt>
      <trkpt lat="43.53172" lon="6.10012">
        <ele>474.1</ele>
        <time>2022-03-23T14:01:20.000Z</time>
      </trkpt>
      <trkpt lat="43.53177" lon="6.1">
        <ele>474.7</ele>
        <time>2022-03-23T14:01:29.000Z</time>
      </trkpt>
      <trkpt lat="43.53179" lon="6.09988">
        <ele>475.4</ele>
        <time>2022-03-23T14:01:35.000Z</time>
      </trkpt>
      <trkpt lat="43.53176" lon="6.09977">
        <ele>475.2</ele>
        <time>2022-03-23T14:01:42.000Z</time>
      </trkpt>
      <trkpt lat="43.53168" lon="6.09971">
        <ele>475.2</ele>
        <time>2022-03-23T14:01:50.000Z</time>
      </trkpt>
      <trkpt lat="43.5316" lon="6.09963">
        <ele>474.8</ele>
        <time>2022-03-23T14:01:57.000Z</time>
      </trkpt>
      <trkpt lat="43.53158" lon="6.09951">
        <ele>475</ele>
        <time>2022-03-23T14:02:03.000Z</time>
      </trkpt>
      <trkpt lat="43.53158" lon="6.09938">
        <ele>474.2</ele>
        <time>2022-03-23T14:02:12.000Z</time>
      </trkpt>
      <trkpt lat="43.53156" lon="6.09925">
        <ele>474.1</ele>
        <time>2022-03-23T14:02:21.000Z</time>
      </trkpt>
      <trkpt lat="43.53155" lon="6.09912">
        <ele>474.8</ele>
        <time>2022-03-23T14:02:27.000Z</time>
      </trkpt>
      <trkpt lat="43.53153" lon="6.09899">
        <ele>474.9</ele>
        <time>2022-03-23T14:02:35.000Z</time>
      </trkpt>
      <trkpt lat="43.53152" lon="6.09886">
        <ele>474.4</ele>
        <time>2022-03-23T14:02:44.000Z</time>
      </trkpt>
      <trkpt lat="43.53144" lon="6.09875">
        <ele>475.2</ele>
        <time>2022-03-23T14:02:49.000Z</time>
      </trkpt>
      <trkpt lat="43.53134" lon="6.09871">
        <ele>474.6</ele>
        <time>2022-03-23T14:02:57.000Z</time>
      </trkpt>
      <trkpt lat="43.53124" lon="6.09866">
        <ele>474.5</ele>
        <time>2022-03-23T14:03:04.000Z</time>
      </trkpt>
      <trkpt lat="43.53118" lon="6.09857">
        <ele>473.6</ele>
        <time>2022-03-23T14:03:15.000Z</time>
      </trkpt>
      <trkpt lat="43.53115" lon="6.09845">
        <ele>474.6</ele>
        <time>2022-03-23T14:03:21.000Z</time>
      </trkpt>
      <trkpt lat="43.53108" lon="6.09835">
        <ele>473.1</ele>
        <time>2022-03-23T14:03:31.000Z</time>
      </trkpt>
      <trkpt lat="43.531" lon="6.09832">
        <ele>473.7</ele>
        <time>2022-03-23T14:03:35.000Z</time>
      </trkpt>
      <trkpt lat="43.5309" lon="6.09828">
        <ele>473</ele>
        <time>2022-03-23T14:03:43.000Z</time>
      </trkpt>
      <trkpt lat="43.53083" lon="6.09819">
        <ele>473.1</ele>
        <time>2022-03-23T14:03:52.000Z</time>
      </trkpt>
      <trkpt lat="43.53079" lon="6.09807">
        <ele>473.4</ele>
        <time>2022-03-23T14:03:58.000Z</time>
      </trkpt>
      <trkpt lat="43.53074" lon="6.09795">
        <ele>471.8</ele>
        <time>2022-03-23T14:04:09.000Z</time>
      </trkpt>
      <trkpt lat="43.53068" lon="6.09785">
        <ele>472.1</ele>
        <time>2022-03-23T14:04:14.000Z</time>
      </trkpt>
      <trkpt lat="43.53064" lon="6.09774">
        <ele>471.7</ele>
        <time>2022-03-23T14:04:23.000Z</time>
      </trkpt>
      <trkpt lat="43.53059" lon="6.09762">
        <ele>472.1</ele>
        <time>2022-03-23T14:04:29.000Z</time>
      </trkpt>
      <trkpt lat="43.53053" lon="6.09752">
        <ele>471.1</ele>
        <time>2022-03-23T14:04:38.000Z</time>
      </trkpt>
      <trkpt lat="43.53048" lon="6.09742">
        <ele>471.7</ele>
        <time>2022-03-23T14:04:44.000Z</time>
      </trkpt>
      <trkpt lat="43.5304" lon="6.09732">
        <ele>471.3</ele>
        <time>2022-03-23T14:04:52.000Z</time>
      </trkpt>
      <trkpt lat="43.53037" lon="6.0972">
        <ele>471.3</ele>
        <time>2022-03-23T14:04:59.000Z</time>
      </trkpt>
      <trkpt lat="43.53031" lon="6.09711">
        <ele>471.5</ele>
        <time>2022-03-23T14:05:06.000Z</time>
      </trkpt>
      <trkpt lat="43.53026" lon="6.09698">
        <ele>472.5</ele>
        <time>2022-03-23T14:05:12.000Z</time>
      </trkpt>
      <trkpt lat="43.53021" lon="6.09686">
        <ele>470.1</ele>
        <time>2022-03-23T14:05:22.000Z</time>
      </trkpt>
      <trkpt lat="43.53017" lon="6.09674">
        <ele>470.3</ele>
        <time>2022-03-23T14:05:28.000Z</time>
      </trkpt>
      <trkpt lat="43.53013" lon="6.09663">
        <ele>471</ele>
        <time>2022-03-23T14:05:34.000Z</time>
      </trkpt>
      <trkpt lat="43.53007" lon="6.09653">
        <ele>468.7</ele>
        <time>2022-03-23T14:05:43.000Z</time>
      </trkpt>
      <trkpt lat="43.52999" lon="6.09644">
        <ele>469.3</ele>
        <time>2022-03-23T14:05:50.000Z</time>
      </trkpt>
      <trkpt lat="43.52992" lon="6.09635">
        <ele>471</ele>
        <time>2022-03-23T14:05:55.000Z</time>
      </trkpt>
      <trkpt lat="43.52983" lon="6.09628">
        <ele>469.4</ele>
        <time>2022-03-23T14:06:05.000Z</time>
      </trkpt>
      <trkpt lat="43.52976" lon="6.09621">
        <ele>470</ele>
        <time>2022-03-23T14:06:10.000Z</time>
      </trkpt>
      <trkpt lat="43.52966" lon="6.09618">
        <ele>469.4</ele>
        <time>2022-03-23T14:06:20.000Z</time>
      </trkpt>
      <trkpt lat="43.52957" lon="6.09613">
        <ele>469.6</ele>
        <time>2022-03-23T14:06:26.000Z</time>
      </trkpt>
      <trkpt lat="43.52948" lon="6.09606">
        <ele>469</ele>
        <time>2022-03-23T14:06:35.000Z</time>
      </trkpt>
      <trkpt lat="43.52942" lon="6.09597">
        <ele>469.2</ele>
        <time>2022-03-23T14:06:41.000Z</time>
      </trkpt>
      <trkpt lat="43.52936" lon="6.09586">
        <ele>469.5</ele>
        <time>2022-03-23T14:06:49.000Z</time>
      </trkpt>
      <trkpt lat="43.52931" lon="6.09576">
        <ele>469.1</ele>
        <time>2022-03-23T14:06:55.000Z</time>
      </trkpt>
      <trkpt lat="43.52925" lon="6.09565">
        <ele>469.5</ele>
        <time>2022-03-23T14:07:03.000Z</time>
      </trkpt>
      <trkpt lat="43.5292" lon="6.09554">
        <ele>469.7</ele>
        <time>2022-03-23T14:07:10.000Z</time>
      </trkpt>
      <trkpt lat="43.52918" lon="6.09541">
        <ele>469.2</ele>
        <time>2022-03-23T14:07:19.000Z</time>
      </trkpt>
      <trkpt lat="43.52917" lon="6.09527">
        <ele>469.5</ele>
        <time>2022-03-23T14:07:28.000Z</time>
      </trkpt>
      <trkpt lat="43.52916" lon="6.09515">
        <ele>469.8</ele>
        <time>2022-03-23T14:07:34.000Z</time>
      </trkpt>
      <trkpt lat="43.52916" lon="6.09502">
        <ele>469.4</ele>
        <time>2022-03-23T14:07:43.000Z</time>
      </trkpt>
      <trkpt lat="43.52915" lon="6.09488">
        <ele>469.8</ele>
        <time>2022-03-23T14:07:49.000Z</time>
      </trkpt>
      <trkpt lat="43.52915" lon="6.09476">
        <ele>469</ele>
        <time>2022-03-23T14:07:58.000Z</time>
      </trkpt>
      <trkpt lat="43.52917" lon="6.09463">
        <ele>469.2</ele>
        <time>2022-03-23T14:08:05.000Z</time>
      </trkpt>
      <trkpt lat="43.52918" lon="6.0945">
        <ele>469</ele>
        <time>2022-03-23T14:08:15.000Z</time>
      </trkpt>
      <trkpt lat="43.52922" lon="6.09439">
        <ele>469.5</ele>
        <time>2022-03-23T14:08:22.000Z</time>
      </trkpt>
      <trkpt lat="43.52931" lon="6.09433">
        <ele>470</ele>
        <time>2022-03-23T14:08:35.000Z</time>
      </trkpt>
      <trkpt lat="43.5294" lon="6.0943">
        <ele>471.3</ele>
        <time>2022-03-23T14:08:41.000Z</time>
      </trkpt>
      <trkpt lat="43.52949" lon="6.09424">
        <ele>469.8</ele>
        <time>2022-03-23T14:08:51.000Z</time>
      </trkpt>
      <trkpt lat="43.52951" lon="6.09412">
        <ele>469.7</ele>
        <time>2022-03-23T14:08:55.000Z</time>
      </trkpt>
      <trkpt lat="43.52953" lon="6.09399">
        <ele>469.5</ele>
        <time>2022-03-23T14:09:01.000Z</time>
      </trkpt>
      <trkpt lat="43.52952" lon="6.09385">
        <ele>469.1</ele>
        <time>2022-03-23T14:09:09.000Z</time>
      </trkpt>
      <trkpt lat="43.52954" lon="6.09372">
        <ele>469.5</ele>
        <time>2022-03-23T14:09:14.000Z</time>
      </trkpt>
      <trkpt lat="43.5296" lon="6.0936">
        <ele>468.7</ele>
        <time>2022-03-23T14:09:25.000Z</time>
      </trkpt>
      <trkpt lat="43.52967" lon="6.09351">
        <ele>469</ele>
        <time>2022-03-23T14:09:32.000Z</time>
      </trkpt>
      <trkpt lat="43.52971" lon="6.09339">
        <ele>470</ele>
        <time>2022-03-23T14:09:37.000Z</time>
      </trkpt>
      <trkpt lat="43.52968" lon="6.09325">
        <ele>467.9</ele>
        <time>2022-03-23T14:09:46.000Z</time>
      </trkpt>
      <trkpt lat="43.52967" lon="6.09312">
        <ele>469.7</ele>
        <time>2022-03-23T14:09:52.000Z</time>
      </trkpt>
      <trkpt lat="43.52968" lon="6.09299">
        <ele>469.1</ele>
        <time>2022-03-23T14:10:00.000Z</time>
      </trkpt>
      <trkpt lat="43.52969" lon="6.09286">
        <ele>469</ele>
        <time>2022-03-23T14:10:09.000Z</time>
      </trkpt>
      <trkpt lat="43.52972" lon="6.09272">
        <ele>469.2</ele>
        <time>2022-03-23T14:10:15.000Z</time>
      </trkpt>
      <trkpt lat="43.52974" lon="6.0926">
        <ele>469.2</ele>
        <time>2022-03-23T14:10:24.000Z</time>
      </trkpt>
      <trkpt lat="43.52974" lon="6.09247">
        <ele>471.6</ele>
        <time>2022-03-23T14:11:55.000Z</time>
      </trkpt>
      <trkpt lat="43.52983" lon="6.09254">
        <ele>472.8</ele>
        <time>2022-03-23T14:13:34.000Z</time>
      </trkpt>
      <trkpt lat="43.52992" lon="6.09254">
        <ele>473</ele>
        <time>2022-03-23T14:13:48.000Z</time>
      </trkpt>
      <trkpt lat="43.53001" lon="6.09253">
        <ele>475.9</ele>
        <time>2022-03-23T14:13:59.000Z</time>
      </trkpt>
      <trkpt lat="43.53011" lon="6.09255">
        <ele>479.1</ele>
        <time>2022-03-23T14:14:09.000Z</time>
      </trkpt>
      <trkpt lat="43.53021" lon="6.09255">
        <ele>481.8</ele>
        <time>2022-03-23T14:14:21.000Z</time>
      </trkpt>
      <trkpt lat="43.5303" lon="6.09253">
        <ele>483.1</ele>
        <time>2022-03-23T14:14:30.000Z</time>
      </trkpt>
      <trkpt lat="43.53039" lon="6.09248">
        <ele>486.4</ele>
        <time>2022-03-23T14:14:42.000Z</time>
      </trkpt>
      <trkpt lat="43.53047" lon="6.09242">
        <ele>487.2</ele>
        <time>2022-03-23T14:14:54.000Z</time>
      </trkpt>
      <trkpt lat="43.53056" lon="6.09238">
        <ele>490.5</ele>
        <time>2022-03-23T14:15:03.000Z</time>
      </trkpt>
      <trkpt lat="43.53064" lon="6.09229">
        <ele>491.3</ele>
        <time>2022-03-23T14:15:12.000Z</time>
      </trkpt>
      <trkpt lat="43.53074" lon="6.09223">
        <ele>494.1</ele>
        <time>2022-03-23T14:15:26.000Z</time>
      </trkpt>
      <trkpt lat="43.53082" lon="6.09218">
        <ele>497.7</ele>
        <time>2022-03-23T14:15:36.000Z</time>
      </trkpt>
      <trkpt lat="43.53091" lon="6.09218">
        <ele>503.1</ele>
        <time>2022-03-23T14:15:48.000Z</time>
      </trkpt>
      <trkpt lat="43.531" lon="6.09212">
        <ele>502.2</ele>
        <time>2022-03-23T14:15:58.000Z</time>
      </trkpt>
      <trkpt lat="43.53108" lon="6.09204">
        <ele>504.9</ele>
        <time>2022-03-23T14:16:08.000Z</time>
      </trkpt>
      <trkpt lat="43.53115" lon="6.09196">
        <ele>508.4</ele>
        <time>2022-03-23T14:16:25.000Z</time>
      </trkpt>
      <trkpt lat="43.53123" lon="6.0919">
        <ele>510.4</ele>
        <time>2022-03-23T14:16:49.000Z</time>
      </trkpt>
      <trkpt lat="43.5313" lon="6.09181">
        <ele>511.3</ele>
        <time>2022-03-23T14:17:01.000Z</time>
      </trkpt>
      <trkpt lat="43.53141" lon="6.09176">
        <ele>515.2</ele>
        <time>2022-03-23T14:17:22.000Z</time>
      </trkpt>
      <trkpt lat="43.53148" lon="6.09168">
        <ele>518.2</ele>
        <time>2022-03-23T14:17:36.000Z</time>
      </trkpt>
      <trkpt lat="43.53157" lon="6.09158">
        <ele>521</ele>
        <time>2022-03-23T14:17:47.000Z</time>
      </trkpt>
      <trkpt lat="43.53162" lon="6.09146">
        <ele>523.1</ele>
        <time>2022-03-23T14:17:59.000Z</time>
      </trkpt>
      <trkpt lat="43.5317" lon="6.0914">
        <ele>525.4</ele>
        <time>2022-03-23T14:18:15.000Z</time>
      </trkpt>
      <trkpt lat="43.53178" lon="6.09133">
        <ele>531</ele>
        <time>2022-03-23T14:18:30.000Z</time>
      </trkpt>
      <trkpt lat="43.53187" lon="6.09131">
        <ele>532.2</ele>
        <time>2022-03-23T14:18:46.000Z</time>
      </trkpt>
      <trkpt lat="43.53195" lon="6.09123">
        <ele>536</ele>
        <time>2022-03-23T14:19:00.000Z</time>
      </trkpt>
      <trkpt lat="43.53201" lon="6.09113">
        <ele>536.6</ele>
        <time>2022-03-23T14:19:16.000Z</time>
      </trkpt>
      <trkpt lat="43.53209" lon="6.09108">
        <ele>542</ele>
        <time>2022-03-23T14:19:34.000Z</time>
      </trkpt>
      <trkpt lat="43.53218" lon="6.09112">
        <ele>545.4</ele>
        <time>2022-03-23T14:19:51.000Z</time>
      </trkpt>
      <trkpt lat="43.53223" lon="6.09101">
        <ele>549.6</ele>
        <time>2022-03-23T14:20:25.000Z</time>
      </trkpt>
      <trkpt lat="43.53231" lon="6.09103">
        <ele>553.4</ele>
        <time>2022-03-23T14:21:08.000Z</time>
      </trkpt>
      <trkpt lat="43.5324" lon="6.09101">
        <ele>557.8</ele>
        <time>2022-03-23T14:21:26.000Z</time>
      </trkpt>
      <trkpt lat="43.53249" lon="6.09106">
        <ele>563</ele>
        <time>2022-03-23T14:21:52.000Z</time>
      </trkpt>
      <trkpt lat="43.53258" lon="6.09108">
        <ele>566.5</ele>
        <time>2022-03-23T14:22:06.000Z</time>
      </trkpt>
      <trkpt lat="43.53267" lon="6.09114">
        <ele>568.6</ele>
        <time>2022-03-23T14:22:21.000Z</time>
      </trkpt>
      <trkpt lat="43.53275" lon="6.09115">
        <ele>572</ele>
        <time>2022-03-23T14:22:38.000Z</time>
      </trkpt>
      <trkpt lat="43.53285" lon="6.09118">
        <ele>577.4</ele>
        <time>2022-03-23T14:22:59.000Z</time>
      </trkpt>
      <trkpt lat="43.53295" lon="6.09121">
        <ele>581.8</ele>
        <time>2022-03-23T14:23:30.000Z</time>
      </trkpt>
      <trkpt lat="43.53303" lon="6.09127">
        <ele>587.3</ele>
        <time>2022-03-23T14:24:04.000Z</time>
      </trkpt>
      <trkpt lat="43.53313" lon="6.09129">
        <ele>589.9</ele>
        <time>2022-03-23T14:24:14.000Z</time>
      </trkpt>
      <trkpt lat="43.53322" lon="6.0913">
        <ele>595.8</ele>
        <time>2022-03-23T14:24:34.000Z</time>
      </trkpt>
      <trkpt lat="43.53321" lon="6.09117">
        <ele>594.7</ele>
        <time>2022-03-23T14:25:14.000Z</time>
      </trkpt>
      <trkpt lat="43.53328" lon="6.0911">
        <ele>595.2</ele>
        <time>2022-03-23T14:26:14.000Z</time>
      </trkpt>
      <trkpt lat="43.53333" lon="6.0912">
        <ele>595.2</ele>
        <time>2022-03-23T14:27:45.000Z</time>
      </trkpt>
      <trkpt lat="43.53341" lon="6.09124">
        <ele>602.2</ele>
        <time>2022-03-23T14:28:01.000Z</time>
      </trkpt>
      <trkpt lat="43.5335" lon="6.09123">
        <ele>605.5</ele>
        <time>2022-03-23T14:28:19.000Z</time>
      </trkpt>
      <trkpt lat="43.5336" lon="6.09121">
        <ele>611.5</ele>
        <time>2022-03-23T14:28:46.000Z</time>
      </trkpt>
      <trkpt lat="43.5337" lon="6.09124">
        <ele>611.5</ele>
        <time>2022-03-23T14:29:06.000Z</time>
      </trkpt>
      <trkpt lat="43.53378" lon="6.09122">
        <ele>617.1</ele>
        <time>2022-03-23T14:29:29.000Z</time>
      </trkpt>
      <trkpt lat="43.53388" lon="6.09123">
        <ele>620.6</ele>
        <time>2022-03-23T14:29:53.000Z</time>
      </trkpt>
      <trkpt lat="43.53397" lon="6.09128">
        <ele>622.7</ele>
        <time>2022-03-23T14:30:11.000Z</time>
      </trkpt>
      <trkpt lat="43.53404" lon="6.09136">
        <ele>628.7</ele>
        <time>2022-03-23T14:30:34.000Z</time>
      </trkpt>
      <trkpt lat="43.53413" lon="6.09134">
        <ele>632.6</ele>
        <time>2022-03-23T14:30:53.000Z</time>
      </trkpt>
      <trkpt lat="43.53421" lon="6.09141">
        <ele>634.9</ele>
        <time>2022-03-23T14:31:25.000Z</time>
      </trkpt>
      <trkpt lat="43.5343" lon="6.09144">
        <ele>640.2</ele>
        <time>2022-03-23T14:32:12.000Z</time>
      </trkpt>
      <trkpt lat="43.53438" lon="6.0915">
        <ele>645.3</ele>
        <time>2022-03-23T14:33:18.000Z</time>
      </trkpt>
      <trkpt lat="43.53447" lon="6.09154">
        <ele>654.6</ele>
        <time>2022-03-23T14:34:30.000Z</time>
      </trkpt>
      <trkpt lat="43.53456" lon="6.09152">
        <ele>662.4</ele>
        <time>2022-03-23T14:35:07.000Z</time>
      </trkpt>
      <trkpt lat="43.53465" lon="6.09149">
        <ele>663.7</ele>
        <time>2022-03-23T14:35:52.000Z</time>
      </trkpt>
      <trkpt lat="43.53474" lon="6.09153">
        <ele>668.8</ele>
        <time>2022-03-23T14:36:08.000Z</time>
      </trkpt>
      <trkpt lat="43.53483" lon="6.09153">
        <ele>674.4</ele>
        <time>2022-03-23T14:36:48.000Z</time>
      </trkpt>
      <trkpt lat="43.53492" lon="6.09154">
        <ele>679.4</ele>
        <time>2022-03-23T14:37:23.000Z</time>
      </trkpt>
      <trkpt lat="43.53502" lon="6.09159">
        <ele>680.1</ele>
        <time>2022-03-23T14:37:37.000Z</time>
      </trkpt>
      <trkpt lat="43.5351" lon="6.09164">
        <ele>687.4</ele>
        <time>2022-03-23T14:38:18.000Z</time>
      </trkpt>
      <trkpt lat="43.53519" lon="6.09161">
        <ele>693.9</ele>
        <time>2022-03-23T14:39:16.000Z</time>
      </trkpt>
      <trkpt lat="43.53528" lon="6.09163">
        <ele>691.3</ele>
        <time>2022-03-23T14:39:30.000Z</time>
      </trkpt>
      <trkpt lat="43.53537" lon="6.09159">
        <ele>698.9</ele>
        <time>2022-03-23T14:39:56.000Z</time>
      </trkpt>
      <trkpt lat="43.53546" lon="6.09163">
        <ele>704.1</ele>
        <time>2022-03-23T14:40:11.000Z</time>
      </trkpt>
      <trkpt lat="43.53555" lon="6.09159">
        <ele>704.7</ele>
        <time>2022-03-23T14:40:24.000Z</time>
      </trkpt>
      <trkpt lat="43.5356" lon="6.09148">
        <ele>704.9</ele>
        <time>2022-03-23T14:41:12.000Z</time>
      </trkpt>
      <trkpt lat="43.5355" lon="6.09146">
        <ele>705.6</ele>
        <time>2022-03-23T14:48:41.000Z</time>
      </trkpt>
      <trkpt lat="43.53541" lon="6.09152">
        <ele>702.3</ele>
        <time>2022-03-23T14:48:56.000Z</time>
      </trkpt>
      <trkpt lat="43.53532" lon="6.09152">
        <ele>696.1</ele>
        <time>2022-03-23T14:49:15.000Z</time>
      </trkpt>
      <trkpt lat="43.53523" lon="6.09153">
        <ele>693.4</ele>
        <time>2022-03-23T14:49:39.000Z</time>
      </trkpt>
      <trkpt lat="43.53514" lon="6.09152">
        <ele>687.6</ele>
        <time>2022-03-23T14:50:04.000Z</time>
      </trkpt>
      <trkpt lat="43.53504" lon="6.09151">
        <ele>683.6</ele>
        <time>2022-03-23T14:50:19.000Z</time>
      </trkpt>
      <trkpt lat="43.53495" lon="6.09148">
        <ele>679</ele>
        <time>2022-03-23T14:50:38.000Z</time>
      </trkpt>
      <trkpt lat="43.53486" lon="6.09144">
        <ele>676.2</ele>
        <time>2022-03-23T14:50:53.000Z</time>
      </trkpt>
      <trkpt lat="43.53476" lon="6.09148">
        <ele>670.2</ele>
        <time>2022-03-23T14:51:16.000Z</time>
      </trkpt>
      <trkpt lat="43.53468" lon="6.09143">
        <ele>667.3</ele>
        <time>2022-03-23T14:51:36.000Z</time>
      </trkpt>
      <trkpt lat="43.5347" lon="6.09155">
        <ele>669.8</ele>
        <time>2022-03-23T14:53:44.000Z</time>
      </trkpt>
      <trkpt lat="43.5348" lon="6.09155">
        <ele>673.1</ele>
        <time>2022-03-23T14:54:24.000Z</time>
      </trkpt>
      <trkpt lat="43.53488" lon="6.09151">
        <ele>678.7</ele>
        <time>2022-03-23T14:54:54.000Z</time>
      </trkpt>
      <trkpt lat="43.53497" lon="6.09157">
        <ele>682.4</ele>
        <time>2022-03-23T14:59:21.000Z</time>
      </trkpt>
      <trkpt lat="43.53505" lon="6.09161">
        <ele>687.3</ele>
        <time>2022-03-23T15:00:04.000Z</time>
      </trkpt>
      <trkpt lat="43.53514" lon="6.09164">
        <ele>692.1</ele>
        <time>2022-03-23T15:00:53.000Z</time>
      </trkpt>
      <trkpt lat="43.53523" lon="6.09162">
        <ele>698.1</ele>
        <time>2022-03-23T15:01:40.000Z</time>
      </trkpt>
      <trkpt lat="43.53532" lon="6.09163">
        <ele>700.4</ele>
        <time>2022-03-23T15:02:41.000Z</time>
      </trkpt>
      <trkpt lat="43.53541" lon="6.0916">
        <ele>703.2</ele>
        <time>2022-03-23T15:03:00.000Z</time>
      </trkpt>
      <trkpt lat="43.5355" lon="6.09159">
        <ele>705.4</ele>
        <time>2022-03-23T15:03:20.000Z</time>
      </trkpt>
      <trkpt lat="43.53558" lon="6.09152">
        <ele>706.9</ele>
        <time>2022-03-23T15:03:43.000Z</time>
      </trkpt>
      <trkpt lat="43.53567" lon="6.09149">
        <ele>706.8</ele>
        <time>2022-03-23T15:08:09.000Z</time>
      </trkpt>
      <trkpt lat="43.5357" lon="6.09137">
        <ele>707.7</ele>
        <time>2022-03-23T15:08:40.000Z</time>
      </trkpt>
      <trkpt lat="43.53575" lon="6.09126">
        <ele>708.6</ele>
        <time>2022-03-23T15:08:52.000Z</time>
      </trkpt>
      <trkpt lat="43.53577" lon="6.09113">
        <ele>709.5</ele>
        <time>2022-03-23T15:09:00.000Z</time>
      </trkpt>
      <trkpt lat="43.53574" lon="6.09101">
        <ele>710.1</ele>
        <time>2022-03-23T15:09:08.000Z</time>
      </trkpt>
      <trkpt lat="43.53566" lon="6.09092">
        <ele>711.6</ele>
        <time>2022-03-23T15:09:17.000Z</time>
      </trkpt>
      <trkpt lat="43.53559" lon="6.09085">
        <ele>711.6</ele>
        <time>2022-03-23T15:09:26.000Z</time>
      </trkpt>
      <trkpt lat="43.53551" lon="6.09078">
        <ele>712.8</ele>
        <time>2022-03-23T15:09:35.000Z</time>
      </trkpt>
      <trkpt lat="43.53544" lon="6.09069">
        <ele>714.1</ele>
        <time>2022-03-23T15:09:44.000Z</time>
      </trkpt>
      <trkpt lat="43.5354" lon="6.09056">
        <ele>714.8</ele>
        <time>2022-03-23T15:09:54.000Z</time>
      </trkpt>
      <trkpt lat="43.53538" lon="6.09044">
        <ele>715.8</ele>
        <time>2022-03-23T15:10:03.000Z</time>
      </trkpt>
      <trkpt lat="43.53534" lon="6.09032">
        <ele>718</ele>
        <time>2022-03-23T15:10:14.000Z</time>
      </trkpt>
      <trkpt lat="43.53526" lon="6.09024">
        <ele>718.3</ele>
        <time>2022-03-23T15:10:36.000Z</time>
      </trkpt>
      <trkpt lat="43.53526" lon="6.09012">
        <ele>718.1</ele>
        <time>2022-03-23T15:10:46.000Z</time>
      </trkpt>
      <trkpt lat="43.53524" lon="6.08999">
        <ele>719.4</ele>
        <time>2022-03-23T15:10:53.000Z</time>
      </trkpt>
      <trkpt lat="43.53524" lon="6.08986">
        <ele>719.7</ele>
        <time>2022-03-23T15:11:01.000Z</time>
      </trkpt>
      <trkpt lat="43.53525" lon="6.08973">
        <ele>721.7</ele>
        <time>2022-03-23T15:11:10.000Z</time>
      </trkpt>
      <trkpt lat="43.53526" lon="6.0896">
        <ele>722.2</ele>
        <time>2022-03-23T15:11:20.000Z</time>
      </trkpt>
      <trkpt lat="43.53523" lon="6.08949">
        <ele>722.8</ele>
        <time>2022-03-23T15:12:12.000Z</time>
      </trkpt>
      <trkpt lat="43.53527" lon="6.08937">
        <ele>724.1</ele>
        <time>2022-03-23T15:12:27.000Z</time>
      </trkpt>
      <trkpt lat="43.5353" lon="6.08925">
        <ele>724.2</ele>
        <time>2022-03-23T15:12:56.000Z</time>
      </trkpt>
      <trkpt lat="43.53534" lon="6.08912">
        <ele>725.7</ele>
        <time>2022-03-23T15:13:07.000Z</time>
      </trkpt>
      <trkpt lat="43.53538" lon="6.089">
        <ele>726.2</ele>
        <time>2022-03-23T15:13:16.000Z</time>
      </trkpt>
      <trkpt lat="43.53542" lon="6.08888">
        <ele>727.9</ele>
        <time>2022-03-23T15:13:29.000Z</time>
      </trkpt>
      <trkpt lat="43.5354" lon="6.08876">
        <ele>728</ele>
        <time>2022-03-23T15:14:31.000Z</time>
      </trkpt>
      <trkpt lat="43.53537" lon="6.08864">
        <ele>731.8</ele>
        <time>2022-03-23T15:14:52.000Z</time>
      </trkpt>
      <trkpt lat="43.53533" lon="6.08852">
        <ele>734.3</ele>
        <time>2022-03-23T15:15:10.000Z</time>
      </trkpt>
      <trkpt lat="43.53537" lon="6.08841">
        <ele>736.5</ele>
        <time>2022-03-23T15:15:42.000Z</time>
      </trkpt>
      <trkpt lat="43.53538" lon="6.08828">
        <ele>739.3</ele>
        <time>2022-03-23T15:16:16.000Z</time>
      </trkpt>
      <trkpt lat="43.53536" lon="6.08815">
        <ele>741.9</ele>
        <time>2022-03-23T15:16:30.000Z</time>
      </trkpt>
      <trkpt lat="43.53539" lon="6.08802">
        <ele>742.7</ele>
        <time>2022-03-23T15:16:46.000Z</time>
      </trkpt>
      <trkpt lat="43.5354" lon="6.0879">
        <ele>743.7</ele>
        <time>2022-03-23T15:17:08.000Z</time>
      </trkpt>
      <trkpt lat="43.53542" lon="6.08777">
        <ele>746.5</ele>
        <time>2022-03-23T15:17:27.000Z</time>
      </trkpt>
      <trkpt lat="43.53539" lon="6.08766">
        <ele>746.2</ele>
        <time>2022-03-23T15:18:17.000Z</time>
      </trkpt>
      <trkpt lat="43.53542" lon="6.08753">
        <ele>745.7</ele>
        <time>2022-03-23T15:18:42.000Z</time>
      </trkpt>
      <trkpt lat="43.53551" lon="6.08748">
        <ele>745.9</ele>
        <time>2022-03-23T15:18:52.000Z</time>
      </trkpt>
      <trkpt lat="43.53559" lon="6.08743">
        <ele>748.5</ele>
        <time>2022-03-23T15:19:00.000Z</time>
      </trkpt>
      <trkpt lat="43.53567" lon="6.08738">
        <ele>748.5</ele>
        <time>2022-03-23T15:19:11.000Z</time>
      </trkpt>
      <trkpt lat="43.53577" lon="6.08735">
        <ele>750.1</ele>
        <time>2022-03-23T15:19:22.000Z</time>
      </trkpt>
      <trkpt lat="43.53584" lon="6.08728">
        <ele>751.4</ele>
        <time>2022-03-23T15:19:30.000Z</time>
      </trkpt>
      <trkpt lat="43.53586" lon="6.08714">
        <ele>751.8</ele>
        <time>2022-03-23T15:19:36.000Z</time>
      </trkpt>
      <trkpt lat="43.53588" lon="6.087">
        <ele>751.8</ele>
        <time>2022-03-23T15:19:43.000Z</time>
      </trkpt>
      <trkpt lat="43.53587" lon="6.08686">
        <ele>752.2</ele>
        <time>2022-03-23T15:19:52.000Z</time>
      </trkpt>
      <trkpt lat="43.53585" lon="6.08674">
        <ele>753.3</ele>
        <time>2022-03-23T15:20:01.000Z</time>
      </trkpt>
      <trkpt lat="43.53582" lon="6.0866">
        <ele>753.4</ele>
        <time>2022-03-23T15:20:09.000Z</time>
      </trkpt>
      <trkpt lat="43.5358" lon="6.08647">
        <ele>753.8</ele>
        <time>2022-03-23T15:20:18.000Z</time>
      </trkpt>
      <trkpt lat="43.53576" lon="6.08633">
        <ele>754.2</ele>
        <time>2022-03-23T15:20:26.000Z</time>
      </trkpt>
      <trkpt lat="43.53574" lon="6.08621">
        <ele>755.5</ele>
        <time>2022-03-23T15:20:34.000Z</time>
      </trkpt>
      <trkpt lat="43.53573" lon="6.08607">
        <ele>755.3</ele>
        <time>2022-03-23T15:20:43.000Z</time>
      </trkpt>
      <trkpt lat="43.53571" lon="6.08595">
        <ele>755.9</ele>
        <time>2022-03-23T15:20:50.000Z</time>
      </trkpt>
      <trkpt lat="43.53571" lon="6.08581">
        <ele>756.2</ele>
        <time>2022-03-23T15:20:58.000Z</time>
      </trkpt>
      <trkpt lat="43.53569" lon="6.08568">
        <ele>756.3</ele>
        <time>2022-03-23T15:21:06.000Z</time>
      </trkpt>
      <trkpt lat="43.53568" lon="6.08554">
        <ele>757.1</ele>
        <time>2022-03-23T15:21:15.000Z</time>
      </trkpt>
      <trkpt lat="43.53565" lon="6.08542">
        <ele>757.2</ele>
        <time>2022-03-23T15:21:24.000Z</time>
      </trkpt>
      <trkpt lat="43.53563" lon="6.08528">
        <ele>757.5</ele>
        <time>2022-03-23T15:21:35.000Z</time>
      </trkpt>
      <trkpt lat="43.53564" lon="6.08515">
        <ele>757.8</ele>
        <time>2022-03-23T15:21:45.000Z</time>
      </trkpt>
      <trkpt lat="43.53564" lon="6.08503">
        <ele>758.6</ele>
        <time>2022-03-23T15:22:04.000Z</time>
      </trkpt>
      <trkpt lat="43.53567" lon="6.08491">
        <ele>758.5</ele>
        <time>2022-03-23T15:22:33.000Z</time>
      </trkpt>
      <trkpt lat="43.53572" lon="6.0848">
        <ele>757.5</ele>
        <time>2022-03-23T15:23:31.000Z</time>
      </trkpt>
      <trkpt lat="43.53574" lon="6.08468">
        <ele>764.4</ele>
        <time>2022-03-23T15:24:00.000Z</time>
      </trkpt>
      <trkpt lat="43.53575" lon="6.08455">
        <ele>767.1</ele>
        <time>2022-03-23T15:24:20.000Z</time>
      </trkpt>
      <trkpt lat="43.53579" lon="6.08444">
        <ele>769.4</ele>
        <time>2022-03-23T15:24:51.000Z</time>
      </trkpt>
      <trkpt lat="43.53575" lon="6.08432">
        <ele>773.7</ele>
        <time>2022-03-23T15:25:39.000Z</time>
      </trkpt>
      <trkpt lat="43.53573" lon="6.0842">
        <ele>777.2</ele>
        <time>2022-03-23T15:26:20.000Z</time>
      </trkpt>
      <trkpt lat="43.53571" lon="6.08408">
        <ele>782.6</ele>
        <time>2022-03-23T15:26:53.000Z</time>
      </trkpt>
      <trkpt lat="43.53566" lon="6.08397">
        <ele>782.6</ele>
        <time>2022-03-23T15:27:12.000Z</time>
      </trkpt>
      <trkpt lat="43.53562" lon="6.08386">
        <ele>787.8</ele>
        <time>2022-03-23T15:27:46.000Z</time>
      </trkpt>
      <trkpt lat="43.53556" lon="6.08376">
        <ele>789.1</ele>
        <time>2022-03-23T15:28:14.000Z</time>
      </trkpt>
      <trkpt lat="43.53553" lon="6.08364">
        <ele>786.5</ele>
        <time>2022-03-23T15:32:07.000Z</time>
      </trkpt>
      <trkpt lat="43.53553" lon="6.0835">
        <ele>789.4</ele>
        <time>2022-03-23T15:32:16.000Z</time>
      </trkpt>
      <trkpt lat="43.53557" lon="6.08339">
        <ele>788.8</ele>
        <time>2022-03-23T15:32:27.000Z</time>
      </trkpt>
      <trkpt lat="43.53557" lon="6.08326">
        <ele>791.3</ele>
        <time>2022-03-23T15:32:34.000Z</time>
      </trkpt>
      <trkpt lat="43.53556" lon="6.08311">
        <ele>792</ele>
        <time>2022-03-23T15:32:43.000Z</time>
      </trkpt>
      <trkpt lat="43.53556" lon="6.08297">
        <ele>792.6</ele>
        <time>2022-03-23T15:32:52.000Z</time>
      </trkpt>
      <trkpt lat="43.53556" lon="6.08282">
        <ele>793.2</ele>
        <time>2022-03-23T15:33:01.000Z</time>
      </trkpt>
      <trkpt lat="43.53556" lon="6.08269">
        <ele>794.8</ele>
        <time>2022-03-23T15:33:10.000Z</time>
      </trkpt>
      <trkpt lat="43.53561" lon="6.08257">
        <ele>794.9</ele>
        <time>2022-03-23T15:33:15.000Z</time>
      </trkpt>
      <trkpt lat="43.53562" lon="6.08244">
        <ele>795.5</ele>
        <time>2022-03-23T15:33:21.000Z</time>
      </trkpt>
      <trkpt lat="43.53565" lon="6.08231">
        <ele>794.7</ele>
        <time>2022-03-23T15:33:30.000Z</time>
      </trkpt>
      <trkpt lat="43.53568" lon="6.08219">
        <ele>797.5</ele>
        <time>2022-03-23T15:33:40.000Z</time>
      </trkpt>
      <trkpt lat="43.53573" lon="6.08207">
        <ele>797.8</ele>
        <time>2022-03-23T15:33:49.000Z</time>
      </trkpt>
      <trkpt lat="43.53578" lon="6.08196">
        <ele>798.8</ele>
        <time>2022-03-23T15:34:00.000Z</time>
      </trkpt>
      <trkpt lat="43.53583" lon="6.08186">
        <ele>799.4</ele>
        <time>2022-03-23T15:34:09.000Z</time>
      </trkpt>
      <trkpt lat="43.53591" lon="6.08177">
        <ele>802</ele>
        <time>2022-03-23T15:34:18.000Z</time>
      </trkpt>
      <trkpt lat="43.53596" lon="6.08166">
        <ele>803.1</ele>
        <time>2022-03-23T15:34:26.000Z</time>
      </trkpt>
      <trkpt lat="43.53603" lon="6.08158">
        <ele>803.5</ele>
        <time>2022-03-23T15:34:35.000Z</time>
      </trkpt>
      <trkpt lat="43.53611" lon="6.0815">
        <ele>804.7</ele>
        <time>2022-03-23T15:34:43.000Z</time>
      </trkpt>
      <trkpt lat="43.53615" lon="6.08138">
        <ele>806</ele>
        <time>2022-03-23T15:34:52.000Z</time>
      </trkpt>
      <trkpt lat="43.53616" lon="6.08125">
        <ele>807.3</ele>
        <time>2022-03-23T15:35:02.000Z</time>
      </trkpt>
      <trkpt lat="43.53618" lon="6.08113">
        <ele>809.1</ele>
        <time>2022-03-23T15:35:16.000Z</time>
      </trkpt>
      <trkpt lat="43.53621" lon="6.08099">
        <ele>811.1</ele>
        <time>2022-03-23T15:35:27.000Z</time>
      </trkpt>
      <trkpt lat="43.53624" lon="6.08087">
        <ele>812.3</ele>
        <time>2022-03-23T15:35:38.000Z</time>
      </trkpt>
      <trkpt lat="43.53627" lon="6.08075">
        <ele>811.9</ele>
        <time>2022-03-23T15:37:06.000Z</time>
      </trkpt>
      <trkpt lat="43.53635" lon="6.08067">
        <ele>808.4</ele>
        <time>2022-03-23T15:40:52.000Z</time>
      </trkpt>
      <trkpt lat="43.53641" lon="6.08058">
        <ele>807.2</ele>
        <time>2022-03-23T15:41:03.000Z</time>
      </trkpt>
      <trkpt lat="43.53649" lon="6.0805">
        <ele>806.5</ele>
        <time>2022-03-23T15:41:10.000Z</time>
      </trkpt>
      <trkpt lat="43.53655" lon="6.08042">
        <ele>805.1</ele>
        <time>2022-03-23T15:41:22.000Z</time>
      </trkpt>
      <trkpt lat="43.5366" lon="6.08031">
        <ele>804.1</ele>
        <time>2022-03-23T15:41:33.000Z</time>
      </trkpt>
      <trkpt lat="43.53667" lon="6.0802">
        <ele>805</ele>
        <time>2022-03-23T15:41:47.000Z</time>
      </trkpt>
      <trkpt lat="43.53674" lon="6.08012">
        <ele>804.9</ele>
        <time>2022-03-23T15:42:00.000Z</time>
      </trkpt>
      <trkpt lat="43.53678" lon="6.07999">
        <ele>807.7</ele>
        <time>2022-03-23T15:42:09.000Z</time>
      </trkpt>
      <trkpt lat="43.53682" lon="6.07988">
        <ele>809.5</ele>
        <time>2022-03-23T15:42:26.000Z</time>
      </trkpt>
      <trkpt lat="43.53688" lon="6.07977">
        <ele>810.1</ele>
        <time>2022-03-23T15:42:44.000Z</time>
      </trkpt>
      <trkpt lat="43.53693" lon="6.07966">
        <ele>810.9</ele>
        <time>2022-03-23T15:42:54.000Z</time>
      </trkpt>
      <trkpt lat="43.53695" lon="6.07952">
        <ele>810.2</ele>
        <time>2022-03-23T15:43:05.000Z</time>
      </trkpt>
      <trkpt lat="43.53698" lon="6.07939">
        <ele>809.4</ele>
        <time>2022-03-23T15:43:22.000Z</time>
      </trkpt>
      <trkpt lat="43.537" lon="6.07925">
        <ele>811.8</ele>
        <time>2022-03-23T15:43:34.000Z</time>
      </trkpt>
      <trkpt lat="43.537" lon="6.07913">
        <ele>811.7</ele>
        <time>2022-03-23T15:43:51.000Z</time>
      </trkpt>
      <trkpt lat="43.53696" lon="6.07902">
        <ele>812.7</ele>
        <time>2022-03-23T15:45:16.000Z</time>
      </trkpt>
      <trkpt lat="43.537" lon="6.07888">
        <ele>813.4</ele>
        <time>2022-03-23T15:45:47.000Z</time>
      </trkpt>
      <trkpt lat="43.53704" lon="6.07875">
        <ele>813.1</ele>
        <time>2022-03-23T15:45:56.000Z</time>
      </trkpt>
      <trkpt lat="43.53705" lon="6.07862">
        <ele>812.5</ele>
        <time>2022-03-23T15:46:05.000Z</time>
      </trkpt>
      <trkpt lat="43.53712" lon="6.07853">
        <ele>812.1</ele>
        <time>2022-03-23T15:46:11.000Z</time>
      </trkpt>
      <trkpt lat="43.53715" lon="6.0784">
        <ele>813.1</ele>
        <time>2022-03-23T15:46:20.000Z</time>
      </trkpt>
      <trkpt lat="43.53717" lon="6.07828">
        <ele>813.5</ele>
        <time>2022-03-23T15:46:27.000Z</time>
      </trkpt>
      <trkpt lat="43.53718" lon="6.07815">
        <ele>815.1</ele>
        <time>2022-03-23T15:46:34.000Z</time>
      </trkpt>
      <trkpt lat="43.53721" lon="6.07802">
        <ele>815</ele>
        <time>2022-03-23T15:46:42.000Z</time>
      </trkpt>
      <trkpt lat="43.53724" lon="6.0779">
        <ele>817.7</ele>
        <time>2022-03-23T15:46:53.000Z</time>
      </trkpt>
      <trkpt lat="43.53724" lon="6.07777">
        <ele>818.7</ele>
        <time>2022-03-23T15:47:07.000Z</time>
      </trkpt>
      <trkpt lat="43.53717" lon="6.0777">
        <ele>820.1</ele>
        <time>2022-03-23T15:47:31.000Z</time>
      </trkpt>
      <trkpt lat="43.53717" lon="6.07783">
        <ele>817</ele>
        <time>2022-03-23T15:52:44.000Z</time>
      </trkpt>
      <trkpt lat="43.53715" lon="6.07795">
        <ele>815.9</ele>
        <time>2022-03-23T15:52:57.000Z</time>
      </trkpt>
      <trkpt lat="43.53712" lon="6.07808">
        <ele>815.3</ele>
        <time>2022-03-23T15:53:05.000Z</time>
      </trkpt>
      <trkpt lat="43.5371" lon="6.07821">
        <ele>815.4</ele>
        <time>2022-03-23T15:53:12.000Z</time>
      </trkpt>
      <trkpt lat="43.53708" lon="6.07834">
        <ele>814.8</ele>
        <time>2022-03-23T15:53:20.000Z</time>
      </trkpt>
      <trkpt lat="43.53703" lon="6.07846">
        <ele>812.2</ele>
        <time>2022-03-23T15:53:31.000Z</time>
      </trkpt>
      <trkpt lat="43.53702" lon="6.0786">
        <ele>812.5</ele>
        <time>2022-03-23T15:53:39.000Z</time>
      </trkpt>
      <trkpt lat="43.53703" lon="6.07872">
        <ele>812.9</ele>
        <time>2022-03-23T15:53:45.000Z</time>
      </trkpt>
      <trkpt lat="43.53703" lon="6.07886">
        <ele>813.4</ele>
        <time>2022-03-23T15:53:51.000Z</time>
      </trkpt>
      <trkpt lat="43.53703" lon="6.07899">
        <ele>813</ele>
        <time>2022-03-23T15:53:57.000Z</time>
      </trkpt>
      <trkpt lat="43.53703" lon="6.07912">
        <ele>811.6</ele>
        <time>2022-03-23T15:54:05.000Z</time>
      </trkpt>
      <trkpt lat="43.53706" lon="6.07925">
        <ele>811.8</ele>
        <time>2022-03-23T15:54:13.000Z</time>
      </trkpt>
      <trkpt lat="43.53707" lon="6.07938">
        <ele>810.5</ele>
        <time>2022-03-23T15:54:20.000Z</time>
      </trkpt>
      <trkpt lat="43.53709" lon="6.07951">
        <ele>810</ele>
        <time>2022-03-23T15:54:28.000Z</time>
      </trkpt>
      <trkpt lat="43.5371" lon="6.07964">
        <ele>809.3</ele>
        <time>2022-03-23T15:54:36.000Z</time>
      </trkpt>
      <trkpt lat="43.5371" lon="6.07977">
        <ele>807.6</ele>
        <time>2022-03-23T15:54:47.000Z</time>
      </trkpt>
      <trkpt lat="43.53707" lon="6.0799">
        <ele>806.9</ele>
        <time>2022-03-23T15:54:56.000Z</time>
      </trkpt>
      <trkpt lat="43.53707" lon="6.08003">
        <ele>805.5</ele>
        <time>2022-03-23T15:55:05.000Z</time>
      </trkpt>
      <trkpt lat="43.53699" lon="6.08011">
        <ele>804.9</ele>
        <time>2022-03-23T15:55:13.000Z</time>
      </trkpt>
      <trkpt lat="43.53699" lon="6.08023">
        <ele>803.7</ele>
        <time>2022-03-23T15:55:24.000Z</time>
      </trkpt>
      <trkpt lat="43.53691" lon="6.0803">
        <ele>803</ele>
        <time>2022-03-23T15:55:31.000Z</time>
      </trkpt>
      <trkpt lat="43.53683" lon="6.08037">
        <ele>802.6</ele>
        <time>2022-03-23T15:55:37.000Z</time>
      </trkpt>
      <trkpt lat="43.53674" lon="6.08046">
        <ele>801</ele>
        <time>2022-03-23T15:55:44.000Z</time>
      </trkpt>
      <trkpt lat="43.53668" lon="6.08055">
        <ele>800.2</ele>
        <time>2022-03-23T15:55:49.000Z</time>
      </trkpt>
      <trkpt lat="43.53665" lon="6.08068">
        <ele>799.2</ele>
        <time>2022-03-23T15:55:55.000Z</time>
      </trkpt>
      <trkpt lat="43.53664" lon="6.08081">
        <ele>798.4</ele>
        <time>2022-03-23T15:56:01.000Z</time>
      </trkpt>
      <trkpt lat="43.53662" lon="6.08094">
        <ele>797.7</ele>
        <time>2022-03-23T15:56:08.000Z</time>
      </trkpt>
      <trkpt lat="43.53666" lon="6.08106">
        <ele>796.8</ele>
        <time>2022-03-23T15:56:15.000Z</time>
      </trkpt>
      <trkpt lat="43.5367" lon="6.08118">
        <ele>796.5</ele>
        <time>2022-03-23T15:56:22.000Z</time>
      </trkpt>
      <trkpt lat="43.53672" lon="6.08131">
        <ele>795.9</ele>
        <time>2022-03-23T15:56:29.000Z</time>
      </trkpt>
      <trkpt lat="43.53676" lon="6.08143">
        <ele>794</ele>
        <time>2022-03-23T15:56:37.000Z</time>
      </trkpt>
      <trkpt lat="43.53673" lon="6.08156">
        <ele>792.7</ele>
        <time>2022-03-23T15:56:47.000Z</time>
      </trkpt>
      <trkpt lat="43.53668" lon="6.08168">
        <ele>791.7</ele>
        <time>2022-03-23T15:56:54.000Z</time>
      </trkpt>
      <trkpt lat="43.53662" lon="6.08178">
        <ele>790.5</ele>
        <time>2022-03-23T15:57:03.000Z</time>
      </trkpt>
      <trkpt lat="43.53654" lon="6.08184">
        <ele>788.9</ele>
        <time>2022-03-23T15:57:12.000Z</time>
      </trkpt>
      <trkpt lat="43.53645" lon="6.08188">
        <ele>788.1</ele>
        <time>2022-03-23T15:57:19.000Z</time>
      </trkpt>
      <trkpt lat="43.53637" lon="6.08195">
        <ele>787.7</ele>
        <time>2022-03-23T15:57:26.000Z</time>
      </trkpt>
      <trkpt lat="43.53632" lon="6.08206">
        <ele>785.9</ele>
        <time>2022-03-23T15:57:36.000Z</time>
      </trkpt>
      <trkpt lat="43.53622" lon="6.08208">
        <ele>783.9</ele>
        <time>2022-03-23T15:57:48.000Z</time>
      </trkpt>
      <trkpt lat="43.53611" lon="6.08208">
        <ele>783.2</ele>
        <time>2022-03-23T15:57:55.000Z</time>
      </trkpt>
      <trkpt lat="43.53602" lon="6.08211">
        <ele>782.6</ele>
        <time>2022-03-23T15:58:01.000Z</time>
      </trkpt>
      <trkpt lat="43.53596" lon="6.08221">
        <ele>780.1</ele>
        <time>2022-03-23T15:58:13.000Z</time>
      </trkpt>
      <trkpt lat="43.53588" lon="6.08228">
        <ele>779.1</ele>
        <time>2022-03-23T15:58:20.000Z</time>
      </trkpt>
      <trkpt lat="43.53581" lon="6.08239">
        <ele>777.6</ele>
        <time>2022-03-23T15:58:27.000Z</time>
      </trkpt>
      <trkpt lat="43.5358" lon="6.08254">
        <ele>777.2</ele>
        <time>2022-03-23T15:58:33.000Z</time>
      </trkpt>
      <trkpt lat="43.53582" lon="6.08267">
        <ele>775.8</ele>
        <time>2022-03-23T15:58:43.000Z</time>
      </trkpt>
      <trkpt lat="43.53587" lon="6.08278">
        <ele>774.7</ele>
        <time>2022-03-23T15:58:50.000Z</time>
      </trkpt>
      <trkpt lat="43.53593" lon="6.08288">
        <ele>774</ele>
        <time>2022-03-23T15:58:55.000Z</time>
      </trkpt>
      <trkpt lat="43.536" lon="6.08296">
        <ele>773.8</ele>
        <time>2022-03-23T15:59:01.000Z</time>
      </trkpt>
      <trkpt lat="43.53607" lon="6.08305">
        <ele>771.9</ele>
        <time>2022-03-23T15:59:10.000Z</time>
      </trkpt>
      <trkpt lat="43.53614" lon="6.08316">
        <ele>771.4</ele>
        <time>2022-03-23T15:59:20.000Z</time>
      </trkpt>
      <trkpt lat="43.53619" lon="6.08326">
        <ele>770.2</ele>
        <time>2022-03-23T15:59:27.000Z</time>
      </trkpt>
      <trkpt lat="43.53621" lon="6.08338">
        <ele>768.7</ele>
        <time>2022-03-23T15:59:36.000Z</time>
      </trkpt>
      <trkpt lat="43.53619" lon="6.0835">
        <ele>767</ele>
        <time>2022-03-23T15:59:45.000Z</time>
      </trkpt>
      <trkpt lat="43.53619" lon="6.08364">
        <ele>766.4</ele>
        <time>2022-03-23T15:59:53.000Z</time>
      </trkpt>
      <trkpt lat="43.53626" lon="6.08375">
        <ele>766</ele>
        <time>2022-03-23T15:59:57.000Z</time>
      </trkpt>
      <trkpt lat="43.53632" lon="6.08384">
        <ele>764.6</ele>
        <time>2022-03-23T16:00:07.000Z</time>
      </trkpt>
      <trkpt lat="43.53638" lon="6.08396">
        <ele>763.1</ele>
        <time>2022-03-23T16:00:14.000Z</time>
      </trkpt>
      <trkpt lat="43.53638" lon="6.08409">
        <ele>761.5</ele>
        <time>2022-03-23T16:00:30.000Z</time>
      </trkpt>
      <trkpt lat="43.53627" lon="6.08416">
        <ele>760.2</ele>
        <time>2022-03-23T16:00:39.000Z</time>
      </trkpt>
      <trkpt lat="43.5362" lon="6.08423">
        <ele>759.6</ele>
        <time>2022-03-23T16:00:47.000Z</time>
      </trkpt>
      <trkpt lat="43.53612" lon="6.08427">
        <ele>757</ele>
        <time>2022-03-23T16:00:59.000Z</time>
      </trkpt>
      <trkpt lat="43.536" lon="6.08436">
        <ele>755.4</ele>
        <time>2022-03-23T16:01:08.000Z</time>
      </trkpt>
      <trkpt lat="43.53592" lon="6.08443">
        <ele>754.9</ele>
        <time>2022-03-23T16:01:15.000Z</time>
      </trkpt>
      <trkpt lat="43.53585" lon="6.0845">
        <ele>753.2</ele>
        <time>2022-03-23T16:01:24.000Z</time>
      </trkpt>
      <trkpt lat="43.53576" lon="6.08458">
        <ele>751.5</ele>
        <time>2022-03-23T16:01:31.000Z</time>
      </trkpt>
      <trkpt lat="43.53567" lon="6.08465">
        <ele>751.3</ele>
        <time>2022-03-23T16:01:37.000Z</time>
      </trkpt>
      <trkpt lat="43.53562" lon="6.08475">
        <ele>749.1</ele>
        <time>2022-03-23T16:01:47.000Z</time>
      </trkpt>
      <trkpt lat="43.53555" lon="6.08486">
        <ele>747.8</ele>
        <time>2022-03-23T16:01:55.000Z</time>
      </trkpt>
      <trkpt lat="43.53551" lon="6.08498">
        <ele>747</ele>
        <time>2022-03-23T16:02:04.000Z</time>
      </trkpt>
      <trkpt lat="43.53551" lon="6.08513">
        <ele>746.9</ele>
        <time>2022-03-23T16:02:12.000Z</time>
      </trkpt>
      <trkpt lat="43.53553" lon="6.08526">
        <ele>747.1</ele>
        <time>2022-03-23T16:02:18.000Z</time>
      </trkpt>
      <trkpt lat="43.53555" lon="6.0854">
        <ele>746.1</ele>
        <time>2022-03-23T16:02:27.000Z</time>
      </trkpt>
      <trkpt lat="43.53554" lon="6.08554">
        <ele>746</ele>
        <time>2022-03-23T16:02:34.000Z</time>
      </trkpt>
      <trkpt lat="43.53554" lon="6.08568">
        <ele>745.8</ele>
        <time>2022-03-23T16:02:40.000Z</time>
      </trkpt>
      <trkpt lat="43.53558" lon="6.0858">
        <ele>745.3</ele>
        <time>2022-03-23T16:02:47.000Z</time>
      </trkpt>
      <trkpt lat="43.5356" lon="6.08594">
        <ele>744.8</ele>
        <time>2022-03-23T16:02:56.000Z</time>
      </trkpt>
      <trkpt lat="43.53557" lon="6.08607">
        <ele>744.2</ele>
        <time>2022-03-23T16:03:03.000Z</time>
      </trkpt>
      <trkpt lat="43.53557" lon="6.08619">
        <ele>744.4</ele>
        <time>2022-03-23T16:03:10.000Z</time>
      </trkpt>
      <trkpt lat="43.53562" lon="6.08631">
        <ele>743.6</ele>
        <time>2022-03-23T16:03:18.000Z</time>
      </trkpt>
      <trkpt lat="43.53568" lon="6.0864">
        <ele>743.5</ele>
        <time>2022-03-23T16:03:23.000Z</time>
      </trkpt>
      <trkpt lat="43.53572" lon="6.08652">
        <ele>743.4</ele>
        <time>2022-03-23T16:03:30.000Z</time>
      </trkpt>
      <trkpt lat="43.53575" lon="6.08664">
        <ele>743.1</ele>
        <time>2022-03-23T16:03:38.000Z</time>
      </trkpt>
      <trkpt lat="43.53577" lon="6.08676">
        <ele>742.3</ele>
        <time>2022-03-23T16:03:44.000Z</time>
      </trkpt>
      <trkpt lat="43.53582" lon="6.08688">
        <ele>740.9</ele>
        <time>2022-03-23T16:03:53.000Z</time>
      </trkpt>
      <trkpt lat="43.53584" lon="6.08701">
        <ele>740.7</ele>
        <time>2022-03-23T16:04:01.000Z</time>
      </trkpt>
      <trkpt lat="43.53581" lon="6.08713">
        <ele>740.4</ele>
        <time>2022-03-23T16:04:12.000Z</time>
      </trkpt>
      <trkpt lat="43.53572" lon="6.08716">
        <ele>739.6</ele>
        <time>2022-03-23T16:04:18.000Z</time>
      </trkpt>
      <trkpt lat="43.53563" lon="6.08719">
        <ele>739</ele>
        <time>2022-03-23T16:04:24.000Z</time>
      </trkpt>
      <trkpt lat="43.53558" lon="6.0873">
        <ele>738</ele>
        <time>2022-03-23T16:04:33.000Z</time>
      </trkpt>
      <trkpt lat="43.53549" lon="6.08734">
        <ele>736.7</ele>
        <time>2022-03-23T16:04:42.000Z</time>
      </trkpt>
      <trkpt lat="43.53541" lon="6.08739">
        <ele>735.8</ele>
        <time>2022-03-23T16:04:48.000Z</time>
      </trkpt>
      <trkpt lat="43.53535" lon="6.08751">
        <ele>734.8</ele>
        <time>2022-03-23T16:04:57.000Z</time>
      </trkpt>
      <trkpt lat="43.53537" lon="6.08763">
        <ele>734.6</ele>
        <time>2022-03-23T16:05:13.000Z</time>
      </trkpt>
      <trkpt lat="43.53538" lon="6.08776">
        <ele>732.4</ele>
        <time>2022-03-23T16:05:58.000Z</time>
      </trkpt>
      <trkpt lat="43.53536" lon="6.08788">
        <ele>731.5</ele>
        <time>2022-03-23T16:06:09.000Z</time>
      </trkpt>
      <trkpt lat="43.53531" lon="6.088">
        <ele>730.5</ele>
        <time>2022-03-23T16:06:19.000Z</time>
      </trkpt>
      <trkpt lat="43.53534" lon="6.08813">
        <ele>729.4</ele>
        <time>2022-03-23T16:06:29.000Z</time>
      </trkpt>
      <trkpt lat="43.53533" lon="6.08825">
        <ele>726</ele>
        <time>2022-03-23T16:06:52.000Z</time>
      </trkpt>
      <trkpt lat="43.53532" lon="6.08838">
        <ele>723</ele>
        <time>2022-03-23T16:07:15.000Z</time>
      </trkpt>
      <trkpt lat="43.53531" lon="6.08851">
        <ele>721</ele>
        <time>2022-03-23T16:07:28.000Z</time>
      </trkpt>
      <trkpt lat="43.53536" lon="6.08862">
        <ele>719.7</ele>
        <time>2022-03-23T16:07:38.000Z</time>
      </trkpt>
      <trkpt lat="43.53539" lon="6.08874">
        <ele>715.8</ele>
        <time>2022-03-23T16:08:15.000Z</time>
      </trkpt>
      <trkpt lat="43.53539" lon="6.08887">
        <ele>714.4</ele>
        <time>2022-03-23T16:08:26.000Z</time>
      </trkpt>
      <trkpt lat="43.53533" lon="6.08899">
        <ele>713.3</ele>
        <time>2022-03-23T16:08:33.000Z</time>
      </trkpt>
      <trkpt lat="43.53526" lon="6.08909">
        <ele>712.5</ele>
        <time>2022-03-23T16:08:39.000Z</time>
      </trkpt>
      <trkpt lat="43.5352" lon="6.08919">
        <ele>711.7</ele>
        <time>2022-03-23T16:08:45.000Z</time>
      </trkpt>
      <trkpt lat="43.53517" lon="6.08932">
        <ele>709.7</ele>
        <time>2022-03-23T16:08:54.000Z</time>
      </trkpt>
      <trkpt lat="43.5352" lon="6.08945">
        <ele>708.4</ele>
        <time>2022-03-23T16:09:02.000Z</time>
      </trkpt>
      <trkpt lat="43.53522" lon="6.08957">
        <ele>706.8</ele>
        <time>2022-03-23T16:09:10.000Z</time>
      </trkpt>
      <trkpt lat="43.5352" lon="6.0897">
        <ele>706.4</ele>
        <time>2022-03-23T16:09:18.000Z</time>
      </trkpt>
      <trkpt lat="43.53517" lon="6.08983">
        <ele>705.6</ele>
        <time>2022-03-23T16:09:25.000Z</time>
      </trkpt>
      <trkpt lat="43.53518" lon="6.08997">
        <ele>705.6</ele>
        <time>2022-03-23T16:09:30.000Z</time>
      </trkpt>
      <trkpt lat="43.53519" lon="6.0901">
        <ele>704</ele>
        <time>2022-03-23T16:09:39.000Z</time>
      </trkpt>
      <trkpt lat="43.53524" lon="6.09023">
        <ele>703.2</ele>
        <time>2022-03-23T16:09:47.000Z</time>
      </trkpt>
      <trkpt lat="43.53528" lon="6.09035">
        <ele>702.9</ele>
        <time>2022-03-23T16:09:52.000Z</time>
      </trkpt>
      <trkpt lat="43.5353" lon="6.09048">
        <ele>702.3</ele>
        <time>2022-03-23T16:09:58.000Z</time>
      </trkpt>
      <trkpt lat="43.53534" lon="6.09059">
        <ele>700.7</ele>
        <time>2022-03-23T16:10:09.000Z</time>
      </trkpt>
      <trkpt lat="43.53536" lon="6.09072">
        <ele>699.3</ele>
        <time>2022-03-23T16:10:42.000Z</time>
      </trkpt>
      <trkpt lat="43.53544" lon="6.09077">
        <ele>699.1</ele>
        <time>2022-03-23T16:10:54.000Z</time>
      </trkpt>
      <trkpt lat="43.53552" lon="6.09084">
        <ele>699.1</ele>
        <time>2022-03-23T16:11:00.000Z</time>
      </trkpt>
      <trkpt lat="43.53559" lon="6.09093">
        <ele>698.2</ele>
        <time>2022-03-23T16:11:10.000Z</time>
      </trkpt>
      <trkpt lat="43.53567" lon="6.091">
        <ele>697.1</ele>
        <time>2022-03-23T16:11:19.000Z</time>
      </trkpt>
      <trkpt lat="43.53573" lon="6.0911">
        <ele>695.8</ele>
        <time>2022-03-23T16:11:27.000Z</time>
      </trkpt>
      <trkpt lat="43.53571" lon="6.09124">
        <ele>694.4</ele>
        <time>2022-03-23T16:11:40.000Z</time>
      </trkpt>
      <trkpt lat="43.53565" lon="6.09133">
        <ele>693.8</ele>
        <time>2022-03-23T16:11:48.000Z</time>
      </trkpt>
      <trkpt lat="43.53565" lon="6.09147">
        <ele>691.9</ele>
        <time>2022-03-23T16:11:58.000Z</time>
      </trkpt>
      <trkpt lat="43.53569" lon="6.09159">
        <ele>691.4</ele>
        <time>2022-03-23T16:12:04.000Z</time>
      </trkpt>
      <trkpt lat="43.53573" lon="6.09173">
        <ele>690.4</ele>
        <time>2022-03-23T16:12:14.000Z</time>
      </trkpt>
      <trkpt lat="43.53575" lon="6.09185">
        <ele>690</ele>
        <time>2022-03-23T16:12:23.000Z</time>
      </trkpt>
      <trkpt lat="43.53576" lon="6.09198">
        <ele>689.4</ele>
        <time>2022-03-23T16:12:31.000Z</time>
      </trkpt>
      <trkpt lat="43.53578" lon="6.09211">
        <ele>689.7</ele>
        <time>2022-03-23T16:12:40.000Z</time>
      </trkpt>
      <trkpt lat="43.53582" lon="6.09223">
        <ele>689.2</ele>
        <time>2022-03-23T16:12:48.000Z</time>
      </trkpt>
      <trkpt lat="43.53586" lon="6.09235">
        <ele>688.8</ele>
        <time>2022-03-23T16:12:56.000Z</time>
      </trkpt>
      <trkpt lat="43.53591" lon="6.09247">
        <ele>688.5</ele>
        <time>2022-03-23T16:13:02.000Z</time>
      </trkpt>
      <trkpt lat="43.53597" lon="6.09257">
        <ele>688.1</ele>
        <time>2022-03-23T16:13:10.000Z</time>
      </trkpt>
      <trkpt lat="43.53604" lon="6.09266">
        <ele>687.8</ele>
        <time>2022-03-23T16:13:16.000Z</time>
      </trkpt>
      <trkpt lat="43.5361" lon="6.09275">
        <ele>686.6</ele>
        <time>2022-03-23T16:13:25.000Z</time>
      </trkpt>
      <trkpt lat="43.53618" lon="6.09282">
        <ele>686.2</ele>
        <time>2022-03-23T16:13:32.000Z</time>
      </trkpt>
      <trkpt lat="43.53626" lon="6.0929">
        <ele>685.3</ele>
        <time>2022-03-23T16:13:42.000Z</time>
      </trkpt>
      <trkpt lat="43.53636" lon="6.09296">
        <ele>684.3</ele>
        <time>2022-03-23T16:13:51.000Z</time>
      </trkpt>
      <trkpt lat="43.53643" lon="6.09303">
        <ele>684.6</ele>
        <time>2022-03-23T16:13:57.000Z</time>
      </trkpt>
      <trkpt lat="43.5365" lon="6.09311">
        <ele>684</ele>
        <time>2022-03-23T16:14:06.000Z</time>
      </trkpt>
      <trkpt lat="43.53658" lon="6.09319">
        <ele>684.2</ele>
        <time>2022-03-23T16:14:14.000Z</time>
      </trkpt>
      <trkpt lat="43.53662" lon="6.09331">
        <ele>683.1</ele>
        <time>2022-03-23T16:14:24.000Z</time>
      </trkpt>
      <trkpt lat="43.53666" lon="6.09342">
        <ele>683.4</ele>
        <time>2022-03-23T16:14:30.000Z</time>
      </trkpt>
      <trkpt lat="43.53671" lon="6.09354">
        <ele>682.8</ele>
        <time>2022-03-23T16:14:40.000Z</time>
      </trkpt>
      <trkpt lat="43.53674" lon="6.09366">
        <ele>682.9</ele>
        <time>2022-03-23T16:14:46.000Z</time>
      </trkpt>
      <trkpt lat="43.53677" lon="6.09379">
        <ele>681.2</ele>
        <time>2022-03-23T16:14:56.000Z</time>
      </trkpt>
      <trkpt lat="43.53677" lon="6.09392">
        <ele>681.2</ele>
        <time>2022-03-23T16:15:02.000Z</time>
      </trkpt>
      <trkpt lat="43.53677" lon="6.09405">
        <ele>680.3</ele>
        <time>2022-03-23T16:15:13.000Z</time>
      </trkpt>
      <trkpt lat="43.53672" lon="6.09416">
        <ele>680.2</ele>
        <time>2022-03-23T16:15:19.000Z</time>
      </trkpt>
      <trkpt lat="43.53672" lon="6.09429">
        <ele>679.1</ele>
        <time>2022-03-23T16:15:29.000Z</time>
      </trkpt>
      <trkpt lat="43.53666" lon="6.09441">
        <ele>678.8</ele>
        <time>2022-03-23T16:15:35.000Z</time>
      </trkpt>
      <trkpt lat="43.53666" lon="6.09454">
        <ele>677.6</ele>
        <time>2022-03-23T16:15:45.000Z</time>
      </trkpt>
      <trkpt lat="43.53666" lon="6.09468">
        <ele>677.2</ele>
        <time>2022-03-23T16:15:52.000Z</time>
      </trkpt>
      <trkpt lat="43.53662" lon="6.09481">
        <ele>676.1</ele>
        <time>2022-03-23T16:15:59.000Z</time>
      </trkpt>
      <trkpt lat="43.53664" lon="6.09496">
        <ele>675.9</ele>
        <time>2022-03-23T16:16:05.000Z</time>
      </trkpt>
      <trkpt lat="43.53666" lon="6.09508">
        <ele>674.5</ele>
        <time>2022-03-23T16:16:14.000Z</time>
      </trkpt>
      <trkpt lat="43.5367" lon="6.09521">
        <ele>674.2</ele>
        <time>2022-03-23T16:16:20.000Z</time>
      </trkpt>
      <trkpt lat="43.53675" lon="6.09532">
        <ele>674</ele>
        <time>2022-03-23T16:16:28.000Z</time>
      </trkpt>
      <trkpt lat="43.53678" lon="6.09545">
        <ele>672.7</ele>
        <time>2022-03-23T16:16:37.000Z</time>
      </trkpt>
      <trkpt lat="43.53682" lon="6.09557">
        <ele>673.1</ele>
        <time>2022-03-23T16:16:43.000Z</time>
      </trkpt>
      <trkpt lat="43.53687" lon="6.09567">
        <ele>671.9</ele>
        <time>2022-03-23T16:16:51.000Z</time>
      </trkpt>
      <trkpt lat="43.53688" lon="6.09581">
        <ele>670.7</ele>
        <time>2022-03-23T16:16:59.000Z</time>
      </trkpt>
      <trkpt lat="43.5369" lon="6.09594">
        <ele>670.4</ele>
        <time>2022-03-23T16:17:05.000Z</time>
      </trkpt>
      <trkpt lat="43.53695" lon="6.09606">
        <ele>669.4</ele>
        <time>2022-03-23T16:17:14.000Z</time>
      </trkpt>
      <trkpt lat="43.53695" lon="6.09619">
        <ele>668.6</ele>
        <time>2022-03-23T16:17:21.000Z</time>
      </trkpt>
      <trkpt lat="43.53694" lon="6.09632">
        <ele>667.3</ele>
        <time>2022-03-23T16:17:31.000Z</time>
      </trkpt>
      <trkpt lat="43.53693" lon="6.09644">
        <ele>667.1</ele>
        <time>2022-03-23T16:17:38.000Z</time>
      </trkpt>
      <trkpt lat="43.53692" lon="6.09657">
        <ele>666.8</ele>
        <time>2022-03-23T16:17:45.000Z</time>
      </trkpt>
      <trkpt lat="43.53693" lon="6.0967">
        <ele>665.4</ele>
        <time>2022-03-23T16:17:54.000Z</time>
      </trkpt>
      <trkpt lat="43.53694" lon="6.09684">
        <ele>665.2</ele>
        <time>2022-03-23T16:18:01.000Z</time>
      </trkpt>
      <trkpt lat="43.53696" lon="6.09696">
        <ele>664.6</ele>
        <time>2022-03-23T16:18:09.000Z</time>
      </trkpt>
      <trkpt lat="43.53697" lon="6.09708">
        <ele>663.3</ele>
        <time>2022-03-23T16:18:18.000Z</time>
      </trkpt>
      <trkpt lat="43.53699" lon="6.09721">
        <ele>662.7</ele>
        <time>2022-03-23T16:18:24.000Z</time>
      </trkpt>
      <trkpt lat="43.537" lon="6.09734">
        <ele>662</ele>
        <time>2022-03-23T16:18:34.000Z</time>
      </trkpt>
      <trkpt lat="43.537" lon="6.09748">
        <ele>660.8</ele>
        <time>2022-03-23T16:18:41.000Z</time>
      </trkpt>
      <trkpt lat="43.537" lon="6.09761">
        <ele>659.7</ele>
        <time>2022-03-23T16:18:51.000Z</time>
      </trkpt>
      <trkpt lat="43.53699" lon="6.09774">
        <ele>659</ele>
        <time>2022-03-23T16:18:59.000Z</time>
      </trkpt>
      <trkpt lat="43.537" lon="6.09788">
        <ele>657.7</ele>
        <time>2022-03-23T16:19:08.000Z</time>
      </trkpt>
      <trkpt lat="43.537" lon="6.09801">
        <ele>657.3</ele>
        <time>2022-03-23T16:19:15.000Z</time>
      </trkpt>
      <trkpt lat="43.53701" lon="6.09815">
        <ele>655.2</ele>
        <time>2022-03-23T16:19:25.000Z</time>
      </trkpt>
      <trkpt lat="43.53701" lon="6.09829">
        <ele>654.9</ele>
        <time>2022-03-23T16:19:31.000Z</time>
      </trkpt>
      <trkpt lat="43.53702" lon="6.09842">
        <ele>653.7</ele>
        <time>2022-03-23T16:19:41.000Z</time>
      </trkpt>
      <trkpt lat="43.53705" lon="6.09855">
        <ele>653.2</ele>
        <time>2022-03-23T16:19:47.000Z</time>
      </trkpt>
      <trkpt lat="43.53707" lon="6.09868">
        <ele>652.2</ele>
        <time>2022-03-23T16:19:57.000Z</time>
      </trkpt>
      <trkpt lat="43.53707" lon="6.09882">
        <ele>651</ele>
        <time>2022-03-23T16:20:06.000Z</time>
      </trkpt>
      <trkpt lat="43.53707" lon="6.09895">
        <ele>650.8</ele>
        <time>2022-03-23T16:20:12.000Z</time>
      </trkpt>
      <trkpt lat="43.53712" lon="6.09907">
        <ele>649.8</ele>
        <time>2022-03-23T16:20:19.000Z</time>
      </trkpt>
      <trkpt lat="43.53716" lon="6.0992">
        <ele>648.7</ele>
        <time>2022-03-23T16:20:28.000Z</time>
      </trkpt>
      <trkpt lat="43.53718" lon="6.09932">
        <ele>647.7</ele>
        <time>2022-03-23T16:20:34.000Z</time>
      </trkpt>
      <trkpt lat="43.5372" lon="6.09945">
        <ele>646.3</ele>
        <time>2022-03-23T16:20:45.000Z</time>
      </trkpt>
      <trkpt lat="43.53722" lon="6.09958">
        <ele>646.3</ele>
        <time>2022-03-23T16:20:51.000Z</time>
      </trkpt>
      <trkpt lat="43.53723" lon="6.0997">
        <ele>644.3</ele>
        <time>2022-03-23T16:21:01.000Z</time>
      </trkpt>
      <trkpt lat="43.53725" lon="6.09983">
        <ele>643.8</ele>
        <time>2022-03-23T16:21:07.000Z</time>
      </trkpt>
      <trkpt lat="43.53726" lon="6.09996">
        <ele>643.5</ele>
        <time>2022-03-23T16:21:14.000Z</time>
      </trkpt>
      <trkpt lat="43.53727" lon="6.1001">
        <ele>642</ele>
        <time>2022-03-23T16:21:24.000Z</time>
      </trkpt>
      <trkpt lat="43.53727" lon="6.10023">
        <ele>641.4</ele>
        <time>2022-03-23T16:21:30.000Z</time>
      </trkpt>
      <trkpt lat="43.53727" lon="6.10035">
        <ele>640.2</ele>
        <time>2022-03-23T16:21:40.000Z</time>
      </trkpt>
      <trkpt lat="43.53723" lon="6.10049">
        <ele>638.9</ele>
        <time>2022-03-23T16:21:48.000Z</time>
      </trkpt>
      <trkpt lat="43.53719" lon="6.10061">
        <ele>639.1</ele>
        <time>2022-03-23T16:21:55.000Z</time>
      </trkpt>
      <trkpt lat="43.5372" lon="6.10073">
        <ele>637.8</ele>
        <time>2022-03-23T16:22:04.000Z</time>
      </trkpt>
      <trkpt lat="43.53717" lon="6.10086">
        <ele>636.7</ele>
        <time>2022-03-23T16:22:12.000Z</time>
      </trkpt>
      <trkpt lat="43.53711" lon="6.10096">
        <ele>636.4</ele>
        <time>2022-03-23T16:22:18.000Z</time>
      </trkpt>
      <trkpt lat="43.53704" lon="6.10105">
        <ele>635.1</ele>
        <time>2022-03-23T16:22:27.000Z</time>
      </trkpt>
      <trkpt lat="43.537" lon="6.10117">
        <ele>633.8</ele>
        <time>2022-03-23T16:22:36.000Z</time>
      </trkpt>
      <trkpt lat="43.53694" lon="6.10128">
        <ele>633.5</ele>
        <time>2022-03-23T16:22:42.000Z</time>
      </trkpt>
      <trkpt lat="43.53692" lon="6.10141">
        <ele>631.7</ele>
        <time>2022-03-23T16:22:51.000Z</time>
      </trkpt>
      <trkpt lat="43.53689" lon="6.10154">
        <ele>631.5</ele>
        <time>2022-03-23T16:22:59.000Z</time>
      </trkpt>
      <trkpt lat="43.53681" lon="6.10164">
        <ele>631.1</ele>
        <time>2022-03-23T16:23:05.000Z</time>
      </trkpt>
      <trkpt lat="43.53677" lon="6.10177">
        <ele>629.4</ele>
        <time>2022-03-23T16:23:14.000Z</time>
      </trkpt>
      <trkpt lat="43.53671" lon="6.10188">
        <ele>628.9</ele>
        <time>2022-03-23T16:23:22.000Z</time>
      </trkpt>
      <trkpt lat="43.53662" lon="6.10194">
        <ele>628.3</ele>
        <time>2022-03-23T16:23:28.000Z</time>
      </trkpt>
      <trkpt lat="43.53655" lon="6.10203">
        <ele>627.7</ele>
        <time>2022-03-23T16:23:39.000Z</time>
      </trkpt>
      <trkpt lat="43.53646" lon="6.10207">
        <ele>626.5</ele>
        <time>2022-03-23T16:23:47.000Z</time>
      </trkpt>
      <trkpt lat="43.53637" lon="6.10211">
        <ele>625.4</ele>
        <time>2022-03-23T16:23:53.000Z</time>
      </trkpt>
      <trkpt lat="43.53628" lon="6.10212">
        <ele>624.9</ele>
        <time>2022-03-23T16:23:58.000Z</time>
      </trkpt>
      <trkpt lat="43.53619" lon="6.10215">
        <ele>624.6</ele>
        <time>2022-03-23T16:24:03.000Z</time>
      </trkpt>
      <trkpt lat="43.53616" lon="6.10227">
        <ele>623.5</ele>
        <time>2022-03-23T16:24:11.000Z</time>
      </trkpt>
      <trkpt lat="43.53619" lon="6.10241">
        <ele>622</ele>
        <time>2022-03-23T16:24:17.000Z</time>
      </trkpt>
      <trkpt lat="43.53622" lon="6.10253">
        <ele>621.6</ele>
        <time>2022-03-23T16:24:23.000Z</time>
      </trkpt>
      <trkpt lat="43.53626" lon="6.10266">
        <ele>620.6</ele>
        <time>2022-03-23T16:24:29.000Z</time>
      </trkpt>
      <trkpt lat="43.53629" lon="6.10279">
        <ele>620.5</ele>
        <time>2022-03-23T16:24:36.000Z</time>
      </trkpt>
      <trkpt lat="43.53633" lon="6.10292">
        <ele>619.5</ele>
        <time>2022-03-23T16:24:45.000Z</time>
      </trkpt>
      <trkpt lat="43.53636" lon="6.10305">
        <ele>618.8</ele>
        <time>2022-03-23T16:24:51.000Z</time>
      </trkpt>
      <trkpt lat="43.53641" lon="6.10315">
        <ele>618.4</ele>
        <time>2022-03-23T16:24:58.000Z</time>
      </trkpt>
      <trkpt lat="43.53645" lon="6.10327">
        <ele>617.8</ele>
        <time>2022-03-23T16:25:06.000Z</time>
      </trkpt>
      <trkpt lat="43.53648" lon="6.10341">
        <ele>616.9</ele>
        <time>2022-03-23T16:25:13.000Z</time>
      </trkpt>
      <trkpt lat="43.53653" lon="6.10352">
        <ele>616.3</ele>
        <time>2022-03-23T16:25:23.000Z</time>
      </trkpt>
      <trkpt lat="43.53656" lon="6.10365">
        <ele>615.6</ele>
        <time>2022-03-23T16:25:31.000Z</time>
      </trkpt>
      <trkpt lat="43.5366" lon="6.10377">
        <ele>615.5</ele>
        <time>2022-03-23T16:25:37.000Z</time>
      </trkpt>
      <trkpt lat="43.53665" lon="6.1039">
        <ele>613.9</ele>
        <time>2022-03-23T16:25:48.000Z</time>
      </trkpt>
      <trkpt lat="43.53672" lon="6.10399">
        <ele>613</ele>
        <time>2022-03-23T16:25:53.000Z</time>
      </trkpt>
      <trkpt lat="43.53678" lon="6.1041">
        <ele>612.8</ele>
        <time>2022-03-23T16:25:59.000Z</time>
      </trkpt>
      <trkpt lat="43.53684" lon="6.10421">
        <ele>611.3</ele>
        <time>2022-03-23T16:26:09.000Z</time>
      </trkpt>
      <trkpt lat="43.53687" lon="6.10433">
        <ele>610.5</ele>
        <time>2022-03-23T16:26:21.000Z</time>
      </trkpt>
      <trkpt lat="43.53684" lon="6.10445">
        <ele>609.1</ele>
        <time>2022-03-23T16:26:29.000Z</time>
      </trkpt>
      <trkpt lat="43.53682" lon="6.10458">
        <ele>605.5</ele>
        <time>2022-03-23T16:26:44.000Z</time>
      </trkpt>
      <trkpt lat="43.53675" lon="6.10468">
        <ele>603.6</ele>
        <time>2022-03-23T16:26:56.000Z</time>
      </trkpt>
      <trkpt lat="43.53673" lon="6.10481">
        <ele>603</ele>
        <time>2022-03-23T16:27:04.000Z</time>
      </trkpt>
      <trkpt lat="43.53672" lon="6.10494">
        <ele>601.1</ele>
        <time>2022-03-23T16:27:14.000Z</time>
      </trkpt>
      <trkpt lat="43.53667" lon="6.10506">
        <ele>600.2</ele>
        <time>2022-03-23T16:27:24.000Z</time>
      </trkpt>
      <trkpt lat="43.53667" lon="6.1052">
        <ele>599.2</ele>
        <time>2022-03-23T16:27:34.000Z</time>
      </trkpt>
      <trkpt lat="43.53663" lon="6.10532">
        <ele>598.4</ele>
        <time>2022-03-23T16:27:40.000Z</time>
      </trkpt>
      <trkpt lat="43.53663" lon="6.10545">
        <ele>597.8</ele>
        <time>2022-03-23T16:27:48.000Z</time>
      </trkpt>
      <trkpt lat="43.53666" lon="6.10559">
        <ele>597.3</ele>
        <time>2022-03-23T16:27:54.000Z</time>
      </trkpt>
      <trkpt lat="43.53668" lon="6.10572">
        <ele>596.3</ele>
        <time>2022-03-23T16:28:00.000Z</time>
      </trkpt>
      <trkpt lat="43.53673" lon="6.10584">
        <ele>595.6</ele>
        <time>2022-03-23T16:28:10.000Z</time>
      </trkpt>
      <trkpt lat="43.53677" lon="6.10597">
        <ele>594.5</ele>
        <time>2022-03-23T16:28:17.000Z</time>
      </trkpt>
      <trkpt lat="43.53678" lon="6.1061">
        <ele>594.1</ele>
        <time>2022-03-23T16:28:26.000Z</time>
      </trkpt>
      <trkpt lat="43.53687" lon="6.10607">
        <ele>593.3</ele>
        <time>2022-03-23T16:28:42.000Z</time>
      </trkpt>
      <trkpt lat="43.53686" lon="6.10593">
        <ele>593.8</ele>
        <time>2022-03-23T16:28:51.000Z</time>
      </trkpt>
      <trkpt lat="43.53683" lon="6.1058">
        <ele>593.9</ele>
        <time>2022-03-23T16:29:03.000Z</time>
      </trkpt>
      <trkpt lat="43.53681" lon="6.10567">
        <ele>596.8</ele>
        <time>2022-03-23T16:29:13.000Z</time>
      </trkpt>
      <trkpt lat="43.53681" lon="6.10554">
        <ele>598.1</ele>
        <time>2022-03-23T16:29:24.000Z</time>
      </trkpt>
      <trkpt lat="43.53681" lon="6.10541">
        <ele>599</ele>
        <time>2022-03-23T16:29:32.000Z</time>
      </trkpt>
      <trkpt lat="43.53684" lon="6.10529">
        <ele>599.9</ele>
        <time>2022-03-23T16:29:40.000Z</time>
      </trkpt>
      <trkpt lat="43.53683" lon="6.10514">
        <ele>600.4</ele>
        <time>2022-03-23T16:29:49.000Z</time>
      </trkpt>
      <trkpt lat="43.53682" lon="6.10502">
        <ele>600.9</ele>
        <time>2022-03-23T16:29:56.000Z</time>
      </trkpt>
      <trkpt lat="43.53677" lon="6.10491">
        <ele>601.7</ele>
        <time>2022-03-23T16:30:04.000Z</time>
      </trkpt>
      <trkpt lat="43.53667" lon="6.10492">
        <ele>602.1</ele>
        <time>2022-03-23T16:30:11.000Z</time>
      </trkpt>
      <trkpt lat="43.53657" lon="6.10498">
        <ele>601.5</ele>
        <time>2022-03-23T16:30:20.000Z</time>
      </trkpt>
      <trkpt lat="43.5365" lon="6.10506">
        <ele>601.3</ele>
        <time>2022-03-23T16:30:27.000Z</time>
      </trkpt>
      <trkpt lat="43.53647" lon="6.10517">
        <ele>600</ele>
        <time>2022-03-23T16:30:51.000Z</time>
      </trkpt>
      <trkpt lat="43.5364" lon="6.10511">
        <ele>600.1</ele>
        <time>2022-03-23T16:31:15.000Z</time>
      </trkpt>
      <trkpt lat="43.53632" lon="6.10503">
        <ele>598.9</ele>
        <time>2022-03-23T16:31:38.000Z</time>
      </trkpt>
      <trkpt lat="43.53626" lon="6.10494">
        <ele>598.6</ele>
        <time>2022-03-23T16:32:13.000Z</time>
      </trkpt>
      <trkpt lat="43.53621" lon="6.10483">
        <ele>597.1</ele>
        <time>2022-03-23T16:32:31.000Z</time>
      </trkpt>
      <trkpt lat="43.53612" lon="6.10483">
        <ele>593.3</ele>
        <time>2022-03-23T16:32:56.000Z</time>
      </trkpt>
      <trkpt lat="43.53603" lon="6.10483">
        <ele>591</ele>
        <time>2022-03-23T16:33:11.000Z</time>
      </trkpt>
      <trkpt lat="43.53594" lon="6.10487">
        <ele>586.5</ele>
        <time>2022-03-23T16:33:54.000Z</time>
      </trkpt>
      <trkpt lat="43.53586" lon="6.10482">
        <ele>582.8</ele>
        <time>2022-03-23T16:34:34.000Z</time>
      </trkpt>
      <trkpt lat="43.53575" lon="6.1048">
        <ele>577.8</ele>
        <time>2022-03-23T16:37:46.000Z</time>
      </trkpt>
      <trkpt lat="43.53575" lon="6.10492">
        <ele>578</ele>
        <time>2022-03-23T16:38:40.000Z</time>
      </trkpt>
      <trkpt lat="43.53571" lon="6.10481">
        <ele>575.2</ele>
        <time>2022-03-23T16:40:10.000Z</time>
      </trkpt>
      <trkpt lat="43.53573" lon="6.10469">
        <ele>571.5</ele>
        <time>2022-03-23T16:40:36.000Z</time>
      </trkpt>
      <trkpt lat="43.53571" lon="6.10456">
        <ele>566.6</ele>
        <time>2022-03-23T16:41:09.000Z</time>
      </trkpt>
      <trkpt lat="43.53563" lon="6.10452">
        <ele>563.6</ele>
        <time>2022-03-23T16:41:49.000Z</time>
      </trkpt>
      <trkpt lat="43.53555" lon="6.10444">
        <ele>558.1</ele>
        <time>2022-03-23T16:43:07.000Z</time>
      </trkpt>
      <trkpt lat="43.53548" lon="6.10437">
        <ele>557</ele>
        <time>2022-03-23T16:43:26.000Z</time>
      </trkpt>
      <trkpt lat="43.53539" lon="6.10433">
        <ele>552.9</ele>
        <time>2022-03-23T16:44:12.000Z</time>
      </trkpt>
      <trkpt lat="43.53531" lon="6.10427">
        <ele>545.5</ele>
        <time>2022-03-23T16:45:22.000Z</time>
      </trkpt>
      <trkpt lat="43.53522" lon="6.10427">
        <ele>543.4</ele>
        <time>2022-03-23T16:45:35.000Z</time>
      </trkpt>
      <trkpt lat="43.53514" lon="6.10421">
        <ele>536.8</ele>
        <time>2022-03-23T16:46:59.000Z</time>
      </trkpt>
      <trkpt lat="43.53505" lon="6.10414">
        <ele>533.7</ele>
        <time>2022-03-23T16:47:10.000Z</time>
      </trkpt>
      <trkpt lat="43.53496" lon="6.10411">
        <ele>531.3</ele>
        <time>2022-03-23T16:47:22.000Z</time>
      </trkpt>
      <trkpt lat="43.53487" lon="6.10411">
        <ele>528.7</ele>
        <time>2022-03-23T16:47:32.000Z</time>
      </trkpt>
      <trkpt lat="43.53478" lon="6.10409">
        <ele>524.6</ele>
        <time>2022-03-23T16:47:45.000Z</time>
      </trkpt>
      <trkpt lat="43.53468" lon="6.10411">
        <ele>520.8</ele>
        <time>2022-03-23T16:48:01.000Z</time>
      </trkpt>
      <trkpt lat="43.53459" lon="6.10409">
        <ele>517.7</ele>
        <time>2022-03-23T16:48:10.000Z</time>
      </trkpt>
      <trkpt lat="43.5345" lon="6.10409">
        <ele>513.8</ele>
        <time>2022-03-23T16:48:23.000Z</time>
      </trkpt>
      <trkpt lat="43.5344" lon="6.10407">
        <ele>508.3</ele>
        <time>2022-03-23T16:48:52.000Z</time>
      </trkpt>
      <trkpt lat="43.5343" lon="6.10407">
        <ele>504.5</ele>
        <time>2022-03-23T16:49:04.000Z</time>
      </trkpt>
      <trkpt lat="43.53421" lon="6.1041">
        <ele>499</ele>
        <time>2022-03-23T16:49:28.000Z</time>
      </trkpt>
      <trkpt lat="43.53412" lon="6.10408">
        <ele>496.5</ele>
        <time>2022-03-23T16:49:39.000Z</time>
      </trkpt>
      <trkpt lat="43.53402" lon="6.10408">
        <ele>493.8</ele>
        <time>2022-03-23T16:49:50.000Z</time>
      </trkpt>
      <trkpt lat="43.53393" lon="6.1041">
        <ele>492.1</ele>
        <time>2022-03-23T16:49:58.000Z</time>
      </trkpt>
      <trkpt lat="43.53386" lon="6.10418">
        <ele>489.8</ele>
        <time>2022-03-23T16:50:09.000Z</time>
      </trkpt>
      <trkpt lat="43.53378" lon="6.10425">
        <ele>488.2</ele>
        <time>2022-03-23T16:50:18.000Z</time>
      </trkpt>
      <trkpt lat="43.53371" lon="6.10433">
        <ele>486.5</ele>
        <time>2022-03-23T16:50:27.000Z</time>
      </trkpt>
      <trkpt lat="43.53362" lon="6.10438">
        <ele>485</ele>
        <time>2022-03-23T16:50:35.000Z</time>
      </trkpt>
      <trkpt lat="43.53353" lon="6.10442">
        <ele>482.4</ele>
        <time>2022-03-23T16:50:50.000Z</time>
      </trkpt>
      <trkpt lat="43.53345" lon="6.10447">
        <ele>480.4</ele>
        <time>2022-03-23T16:51:00.000Z</time>
      </trkpt>
      <trkpt lat="43.53336" lon="6.10453">
        <ele>478.6</ele>
        <time>2022-03-23T16:51:10.000Z</time>
      </trkpt>
      <trkpt lat="43.53328" lon="6.10459">
        <ele>476.6</ele>
        <time>2022-03-23T16:51:23.000Z</time>
      </trkpt>
      <trkpt lat="43.53322" lon="6.10469">
        <ele>474.2</ele>
        <time>2022-03-23T16:51:33.000Z</time>
      </trkpt>
      <trkpt lat="43.53313" lon="6.10474">
        <ele>473.7</ele>
        <time>2022-03-23T16:51:39.000Z</time>
      </trkpt>
      <trkpt lat="43.53306" lon="6.10482">
        <ele>472</ele>
        <time>2022-03-23T16:51:50.000Z</time>
      </trkpt>
      <trkpt lat="43.53298" lon="6.1049">
        <ele>470.7</ele>
        <time>2022-03-23T16:52:02.000Z</time>
      </trkpt>
      <trkpt lat="43.53293" lon="6.105">
        <ele>467.8</ele>
        <time>2022-03-23T16:52:21.000Z</time>
      </trkpt>
      <trkpt lat="43.53284" lon="6.10502">
        <ele>467</ele>
        <time>2022-03-23T16:52:27.000Z</time>
      </trkpt>
      <trkpt lat="43.53275" lon="6.10509">
        <ele>465.9</ele>
        <time>2022-03-23T16:52:33.000Z</time>
      </trkpt>
      <trkpt lat="43.53266" lon="6.10511">
        <ele>464.2</ele>
        <time>2022-03-23T16:52:47.000Z</time>
      </trkpt>
      <trkpt lat="43.53256" lon="6.10512">
        <ele>461.7</ele>
        <time>2022-03-23T16:52:58.000Z</time>
      </trkpt>
      <trkpt lat="43.53246" lon="6.10517">
        <ele>460.2</ele>
        <time>2022-03-23T16:53:06.000Z</time>
      </trkpt>
      <trkpt lat="43.53243" lon="6.1053">
        <ele>458.7</ele>
        <time>2022-03-23T16:53:26.000Z</time>
      </trkpt>
      <trkpt lat="43.53235" lon="6.10538">
        <ele>459.4</ele>
        <time>2022-03-23T16:53:34.000Z</time>
      </trkpt>
      <trkpt lat="43.53244" lon="6.1054">
        <ele>458.5</ele>
        <time>2022-03-23T16:54:48.000Z</time>
      </trkpt>
      <trkpt lat="43.53253" lon="6.10538">
        <ele>458.2</ele>
        <time>2022-03-23T16:57:14.000Z</time>
      </trkpt>
      <trkpt lat="43.53247" lon="6.1053">
        <ele>458.4</ele>
        <time>2022-03-23T16:57:56.000Z</time>
      </trkpt>
      <trkpt lat="43.53245" lon="6.10542">
        <ele>457.9</ele>
        <time>2022-03-23T16:58:48.000Z</time>
      </trkpt>
      <trkpt lat="43.53236" lon="6.10546">
        <ele>458.5</ele>
        <time>2022-03-23T17:00:57.000Z</time>
      </trkpt>
      <trkpt lat="43.53227" lon="6.10553">
        <ele>459</ele>
        <time>2022-03-23T17:01:49.000Z</time>
      </trkpt>
      <trkpt lat="43.53218" lon="6.10555">
        <ele>459.2</ele>
        <time>2022-03-23T17:01:57.000Z</time>
      </trkpt>
      <trkpt lat="43.53209" lon="6.10559">
        <ele>458.2</ele>
        <time>2022-03-23T17:02:04.000Z</time>
      </trkpt>
      <trkpt lat="43.532" lon="6.10563">
        <ele>457.3</ele>
        <time>2022-03-23T17:02:11.000Z</time>
      </trkpt>
      <trkpt lat="43.53193" lon="6.1057">
        <ele>457.5</ele>
        <time>2022-03-23T17:02:18.000Z</time>
      </trkpt>
      <trkpt lat="43.53182" lon="6.10572">
        <ele>458.1</ele>
        <time>2022-03-23T17:02:24.000Z</time>
      </trkpt>
      <trkpt lat="43.53173" lon="6.1057">
        <ele>458.3</ele>
        <time>2022-03-23T17:02:28.000Z</time>
      </trkpt>
      <trkpt lat="43.53164" lon="6.10567">
        <ele>458.2</ele>
        <time>2022-03-23T17:02:32.000Z</time>
      </trkpt>
      <trkpt lat="43.53153" lon="6.10567">
        <ele>458.3</ele>
        <time>2022-03-23T17:02:37.000Z</time>
      </trkpt>
      <trkpt lat="43.53146" lon="6.10577">
        <ele>457.5</ele>
        <time>2022-03-23T17:02:41.000Z</time>
      </trkpt>
      <trkpt lat="43.53139" lon="6.10586">
        <ele>457.3</ele>
        <time>2022-03-23T17:02:46.000Z</time>
      </trkpt>
      <trkpt lat="43.53131" lon="6.10591">
        <ele>457.1</ele>
        <time>2022-03-23T17:02:52.000Z</time>
      </trkpt>
      <trkpt lat="43.53123" lon="6.10599">
        <ele>456.7</ele>
        <time>2022-03-23T17:03:00.000Z</time>
      </trkpt>
      <trkpt lat="43.53119" lon="6.10611">
        <ele>456.4</ele>
        <time>2022-03-23T17:03:07.000Z</time>
      </trkpt>
      <trkpt lat="43.53111" lon="6.10617">
        <ele>457.4</ele>
        <time>2022-03-23T17:03:14.000Z</time>
      </trkpt>
      <trkpt lat="43.53101" lon="6.10623">
        <ele>458.1</ele>
        <time>2022-03-23T17:03:21.000Z</time>
      </trkpt>
      <trkpt lat="43.53093" lon="6.10629">
        <ele>459.1</ele>
        <time>2022-03-23T17:03:26.000Z</time>
      </trkpt>
      <trkpt lat="43.53083" lon="6.10635">
        <ele>459.5</ele>
        <time>2022-03-23T17:03:32.000Z</time>
      </trkpt>
      <trkpt lat="43.53075" lon="6.10644">
        <ele>459.4</ele>
        <time>2022-03-23T17:03:37.000Z</time>
      </trkpt>
      <trkpt lat="43.53069" lon="6.10654">
        <ele>459.3</ele>
        <time>2022-03-23T17:03:42.000Z</time>
      </trkpt>
      <trkpt lat="43.5306" lon="6.10661">
        <ele>459.7</ele>
        <time>2022-03-23T17:03:48.000Z</time>
      </trkpt>
      <trkpt lat="43.53053" lon="6.10672">
        <ele>459.8</ele>
        <time>2022-03-23T17:03:53.000Z</time>
      </trkpt>
      <trkpt lat="43.53045" lon="6.10681">
        <ele>460.2</ele>
        <time>2022-03-23T17:03:58.000Z</time>
      </trkpt>
      <trkpt lat="43.53039" lon="6.1069">
        <ele>460.4</ele>
        <time>2022-03-23T17:04:02.000Z</time>
      </trkpt>
      <trkpt lat="43.53037" lon="6.10704">
        <ele>459.8</ele>
        <time>2022-03-23T17:04:07.000Z</time>
      </trkpt>
      <trkpt lat="43.53039" lon="6.1072">
        <ele>459.6</ele>
        <time>2022-03-23T17:04:11.000Z</time>
      </trkpt>
      <trkpt lat="43.53045" lon="6.10732">
        <ele>459.2</ele>
        <time>2022-03-23T17:04:15.000Z</time>
      </trkpt>
      <trkpt lat="43.53054" lon="6.10739">
        <ele>459.6</ele>
        <time>2022-03-23T17:04:19.000Z</time>
      </trkpt>
      <trkpt lat="43.53061" lon="6.10748">
        <ele>459.3</ele>
        <time>2022-03-23T17:04:23.000Z</time>
      </trkpt>
      <trkpt lat="43.5307" lon="6.10755">
        <ele>459.5</ele>
        <time>2022-03-23T17:04:28.000Z</time>
      </trkpt>
      <trkpt lat="43.53078" lon="6.10763">
        <ele>460.6</ele>
        <time>2022-03-23T17:04:35.000Z</time>
      </trkpt>
      <trkpt lat="43.53087" lon="6.10769">
        <ele>459.8</ele>
        <time>2022-03-23T17:04:43.000Z</time>
      </trkpt>
      <trkpt lat="43.53096" lon="6.10775">
        <ele>458.9</ele>
        <time>2022-03-23T17:04:52.000Z</time>
      </trkpt>
      <trkpt lat="43.53102" lon="6.10785">
        <ele>458.4</ele>
        <time>2022-03-23T17:05:02.000Z</time>
      </trkpt>
      <trkpt lat="43.53099" lon="6.10797">
        <ele>459.2</ele>
        <time>2022-03-23T17:05:10.000Z</time>
      </trkpt>
      <trkpt lat="43.53094" lon="6.10809">
        <ele>458.8</ele>
        <time>2022-03-23T17:05:15.000Z</time>
      </trkpt>
      <trkpt lat="43.53091" lon="6.10824">
        <ele>458.1</ele>
        <time>2022-03-23T17:05:20.000Z</time>
      </trkpt>
      <trkpt lat="43.53098" lon="6.10833">
        <ele>457.6</ele>
        <time>2022-03-23T17:05:26.000Z</time>
      </trkpt>
      <trkpt lat="43.53103" lon="6.10845">
        <ele>456.3</ele>
        <time>2022-03-23T17:05:33.000Z</time>
      </trkpt>
      <trkpt lat="43.53107" lon="6.10856">
        <ele>456.4</ele>
        <time>2022-03-23T17:05:39.000Z</time>
      </trkpt>
      <trkpt lat="43.53112" lon="6.10868">
        <ele>456</ele>
        <time>2022-03-23T17:05:44.000Z</time>
      </trkpt>
      <trkpt lat="43.53116" lon="6.1088">
        <ele>456</ele>
        <time>2022-03-23T17:05:49.000Z</time>
      </trkpt>
      <trkpt lat="43.53122" lon="6.10891">
        <ele>455.1</ele>
        <time>2022-03-23T17:05:59.000Z</time>
      </trkpt>
      <trkpt lat="43.53129" lon="6.10902">
        <ele>455.1</ele>
        <time>2022-03-23T17:06:04.000Z</time>
      </trkpt>
      <trkpt lat="43.53134" lon="6.10912">
        <ele>454.9</ele>
        <time>2022-03-23T17:06:10.000Z</time>
      </trkpt>
      <trkpt lat="43.5314" lon="6.10923">
        <ele>453.4</ele>
        <time>2022-03-23T17:06:21.000Z</time>
      </trkpt>
      <trkpt lat="43.53144" lon="6.10934">
        <ele>453.3</ele>
        <time>2022-03-23T17:06:28.000Z</time>
      </trkpt>
      <trkpt lat="43.53148" lon="6.10946">
        <ele>452.7</ele>
        <time>2022-03-23T17:06:34.000Z</time>
      </trkpt>
      <trkpt lat="43.53149" lon="6.10962">
        <ele>452.4</ele>
        <time>2022-03-23T17:06:40.000Z</time>
      </trkpt>
      <trkpt lat="43.53148" lon="6.10975">
        <ele>452.5</ele>
        <time>2022-03-23T17:06:46.000Z</time>
      </trkpt>
      <trkpt lat="43.53152" lon="6.10986">
        <ele>451.3</ele>
        <time>2022-03-23T17:06:55.000Z</time>
      </trkpt>
      <trkpt lat="43.53156" lon="6.10998">
        <ele>450.1</ele>
        <time>2022-03-23T17:07:03.000Z</time>
      </trkpt>
      <trkpt lat="43.53159" lon="6.11011">
        <ele>449.9</ele>
        <time>2022-03-23T17:07:09.000Z</time>
      </trkpt>
      <trkpt lat="43.53167" lon="6.11017">
        <ele>450.3</ele>
        <time>2022-03-23T17:12:03.000Z</time>
      </trkpt>
      <trkpt lat="43.5317" lon="6.11029">
        <ele>450.4</ele>
        <time>2022-03-23T17:12:21.000Z</time>
      </trkpt>
      <trkpt lat="43.53173" lon="6.11042">
        <ele>450.4</ele>
        <time>2022-03-23T17:12:27.000Z</time>
      </trkpt>
      <trkpt lat="43.53173" lon="6.11055">
        <ele>449.8</ele>
        <time>2022-03-23T17:12:38.000Z</time>
      </trkpt>
      <trkpt lat="43.53175" lon="6.11068">
        <ele>450</ele>
        <time>2022-03-23T17:12:43.000Z</time>
      </trkpt>
      <trkpt lat="43.53178" lon="6.11081">
        <ele>448.9</ele>
        <time>2022-03-23T17:12:51.000Z</time>
      </trkpt>
      <trkpt lat="43.53182" lon="6.11092">
        <ele>449</ele>
        <time>2022-03-23T17:12:58.000Z</time>
      </trkpt>
      <trkpt lat="43.53186" lon="6.11106">
        <ele>449.8</ele>
        <time>2022-03-23T17:13:05.000Z</time>
      </trkpt>
      <trkpt lat="43.53187" lon="6.1112">
        <ele>448.8</ele>
        <time>2022-03-23T17:13:10.000Z</time>
      </trkpt>
      <trkpt lat="43.53181" lon="6.11131">
        <ele>448.2</ele>
        <time>2022-03-23T17:13:17.000Z</time>
      </trkpt>
      <trkpt lat="43.53175" lon="6.11141">
        <ele>447.9</ele>
        <time>2022-03-23T17:13:26.000Z</time>
      </trkpt>
      <trkpt lat="43.53169" lon="6.1115">
        <ele>447.5</ele>
        <time>2022-03-23T17:13:30.000Z</time>
      </trkpt>
      <trkpt lat="43.53165" lon="6.11162">
        <ele>447.4</ele>
        <time>2022-03-23T17:13:35.000Z</time>
      </trkpt>
      <trkpt lat="43.53166" lon="6.11175">
        <ele>446</ele>
        <time>2022-03-23T17:13:43.000Z</time>
      </trkpt>
      <trkpt lat="43.53163" lon="6.11187">
        <ele>446</ele>
        <time>2022-03-23T17:13:49.000Z</time>
      </trkpt>
      <trkpt lat="43.53166" lon="6.112">
        <ele>445.8</ele>
        <time>2022-03-23T17:13:52.000Z</time>
      </trkpt>
      <trkpt lat="43.5317" lon="6.11212">
        <ele>445.5</ele>
        <time>2022-03-23T17:14:05.000Z</time>
      </trkpt>
      <trkpt lat="43.53168" lon="6.11225">
        <ele>445.1</ele>
        <time>2022-03-23T17:14:14.000Z</time>
      </trkpt>
      <trkpt lat="43.5317" lon="6.11239">
        <ele>444.6</ele>
        <time>2022-03-23T17:14:23.000Z</time>
      </trkpt>
      <trkpt lat="43.53168" lon="6.11252">
        <ele>444.3</ele>
        <time>2022-03-23T17:14:27.000Z</time>
      </trkpt>
      <trkpt lat="43.53167" lon="6.11265">
        <ele>444</ele>
        <time>2022-03-23T17:14:33.000Z</time>
      </trkpt>
      <trkpt lat="43.53163" lon="6.11279">
        <ele>443.2</ele>
        <time>2022-03-23T17:14:42.000Z</time>
      </trkpt>
      <trkpt lat="43.53157" lon="6.11291">
        <ele>443</ele>
        <time>2022-03-23T17:14:47.000Z</time>
      </trkpt>
      <trkpt lat="43.53152" lon="6.11301">
        <ele>442.2</ele>
        <time>2022-03-23T17:14:54.000Z</time>
      </trkpt>
      <trkpt lat="43.53144" lon="6.11312">
        <ele>441.5</ele>
        <time>2022-03-23T17:15:03.000Z</time>
      </trkpt>
      <trkpt lat="43.5314" lon="6.11323">
        <ele>441.1</ele>
        <time>2022-03-23T17:15:08.000Z</time>
      </trkpt>
      <trkpt lat="43.53134" lon="6.11334">
        <ele>440.3</ele>
        <time>2022-03-23T17:15:17.000Z</time>
      </trkpt>
      <trkpt lat="43.53125" lon="6.11342">
        <ele>440.1</ele>
        <time>2022-03-23T17:15:23.000Z</time>
      </trkpt>
      <trkpt lat="43.53119" lon="6.11354">
        <ele>439.9</ele>
        <time>2022-03-23T17:15:30.000Z</time>
      </trkpt>
      <trkpt lat="43.53113" lon="6.11363">
        <ele>439.2</ele>
        <time>2022-03-23T17:15:37.000Z</time>
      </trkpt>
      <trkpt lat="43.53105" lon="6.11372">
        <ele>439.3</ele>
        <time>2022-03-23T17:15:42.000Z</time>
      </trkpt>
      <trkpt lat="43.53096" lon="6.1138">
        <ele>438.8</ele>
        <time>2022-03-23T17:15:46.000Z</time>
      </trkpt>
      <trkpt lat="43.53088" lon="6.11387">
        <ele>437.8</ele>
        <time>2022-03-23T17:15:53.000Z</time>
      </trkpt>
      <trkpt lat="43.53084" lon="6.11399">
        <ele>437.8</ele>
        <time>2022-03-23T17:16:00.000Z</time>
      </trkpt>
      <trkpt lat="43.53077" lon="6.11408">
        <ele>436.6</ele>
        <time>2022-03-23T17:16:07.000Z</time>
      </trkpt>
      <trkpt lat="43.53069" lon="6.11416">
        <ele>436.7</ele>
        <time>2022-03-23T17:16:16.000Z</time>
      </trkpt>
      <trkpt lat="43.53062" lon="6.11425">
        <ele>435.6</ele>
        <time>2022-03-23T17:16:25.000Z</time>
      </trkpt>
      <trkpt lat="43.53054" lon="6.11432">
        <ele>435.6</ele>
        <time>2022-03-23T17:16:29.000Z</time>
      </trkpt>
      <trkpt lat="43.53048" lon="6.11443">
        <ele>436</ele>
        <time>2022-03-23T17:16:36.000Z</time>
      </trkpt>
      <trkpt lat="43.53042" lon="6.11454">
        <ele>434.7</ele>
        <time>2022-03-23T17:16:45.000Z</time>
      </trkpt>
      <trkpt lat="43.53037" lon="6.11464">
        <ele>434.4</ele>
        <time>2022-03-23T17:16:50.000Z</time>
      </trkpt>
      <trkpt lat="43.53032" lon="6.11474">
        <ele>433.5</ele>
        <time>2022-03-23T17:16:56.000Z</time>
      </trkpt>
      <trkpt lat="43.53029" lon="6.11488">
        <ele>432.9</ele>
        <time>2022-03-23T17:17:03.000Z</time>
      </trkpt>
      <trkpt lat="43.53028" lon="6.11502">
        <ele>433.2</ele>
        <time>2022-03-23T17:17:09.000Z</time>
      </trkpt>
      <trkpt lat="43.53032" lon="6.11516">
        <ele>432.5</ele>
        <time>2022-03-23T17:17:16.000Z</time>
      </trkpt>
      <trkpt lat="43.53038" lon="6.11527">
        <ele>432.6</ele>
        <time>2022-03-23T17:17:21.000Z</time>
      </trkpt>
      <trkpt lat="43.53043" lon="6.11538">
        <ele>431.9</ele>
        <time>2022-03-23T17:17:28.000Z</time>
      </trkpt>
      <trkpt lat="43.5305" lon="6.11548">
        <ele>431.9</ele>
        <time>2022-03-23T17:17:34.000Z</time>
      </trkpt>
      <trkpt lat="43.53059" lon="6.11555">
        <ele>432.4</ele>
        <time>2022-03-23T17:17:40.000Z</time>
      </trkpt>
      <trkpt lat="43.53066" lon="6.11563">
        <ele>431.7</ele>
        <time>2022-03-23T17:17:48.000Z</time>
      </trkpt>
      <trkpt lat="43.53071" lon="6.11574">
        <ele>430.7</ele>
        <time>2022-03-23T17:17:59.000Z</time>
      </trkpt>
      <trkpt lat="43.53066" lon="6.11584">
        <ele>430.8</ele>
        <time>2022-03-23T17:18:08.000Z</time>
      </trkpt>
      <trkpt lat="43.53059" lon="6.11594">
        <ele>430.2</ele>
        <time>2022-03-23T17:18:16.000Z</time>
      </trkpt>
      <trkpt lat="43.53057" lon="6.11606">
        <ele>428.9</ele>
        <time>2022-03-23T17:18:25.000Z</time>
      </trkpt>
      <trkpt lat="43.53057" lon="6.1162">
        <ele>428.9</ele>
        <time>2022-03-23T17:18:34.000Z</time>
      </trkpt>
      <trkpt lat="43.53059" lon="6.11633">
        <ele>428.2</ele>
        <time>2022-03-23T17:18:42.000Z</time>
      </trkpt>
      <trkpt lat="43.53066" lon="6.11644">
        <ele>428.1</ele>
        <time>2022-03-23T17:18:50.000Z</time>
      </trkpt>
      <trkpt lat="43.53073" lon="6.11652">
        <ele>428</ele>
        <time>2022-03-23T17:18:56.000Z</time>
      </trkpt>
      <trkpt lat="43.53081" lon="6.1166">
        <ele>427.8</ele>
        <time>2022-03-23T17:19:02.000Z</time>
      </trkpt>
      <trkpt lat="43.53091" lon="6.11664">
        <ele>427.3</ele>
        <time>2022-03-23T17:19:10.000Z</time>
      </trkpt>
      <trkpt lat="43.531" lon="6.11671">
        <ele>427.4</ele>
        <time>2022-03-23T17:19:19.000Z</time>
      </trkpt>
      <trkpt lat="43.53104" lon="6.11683">
        <ele>426.6</ele>
        <time>2022-03-23T17:19:29.000Z</time>
      </trkpt>
      <trkpt lat="43.53103" lon="6.11696">
        <ele>426</ele>
        <time>2022-03-23T17:19:45.000Z</time>
      </trkpt>
      <trkpt lat="43.531" lon="6.11708">
        <ele>425.8</ele>
        <time>2022-03-23T17:19:53.000Z</time>
      </trkpt>
      <trkpt lat="43.53101" lon="6.11721">
        <ele>425.2</ele>
        <time>2022-03-23T17:20:00.000Z</time>
      </trkpt>
      <trkpt lat="43.53105" lon="6.11732">
        <ele>424.9</ele>
        <time>2022-03-23T17:20:08.000Z</time>
      </trkpt>
      <trkpt lat="43.53112" lon="6.11743">
        <ele>424.3</ele>
        <time>2022-03-23T17:20:15.000Z</time>
      </trkpt>
      <trkpt lat="43.53116" lon="6.11755">
        <ele>424.2</ele>
        <time>2022-03-23T17:20:23.000Z</time>
      </trkpt>
      <trkpt lat="43.53123" lon="6.11763">
        <ele>423.1</ele>
        <time>2022-03-23T17:20:30.000Z</time>
      </trkpt>
      <trkpt lat="43.5313" lon="6.11771">
        <ele>423.1</ele>
        <time>2022-03-23T17:20:38.000Z</time>
      </trkpt>
      <trkpt lat="43.53133" lon="6.11784">
        <ele>423</ele>
        <time>2022-03-23T17:20:46.000Z</time>
      </trkpt>
      <trkpt lat="43.53137" lon="6.11797">
        <ele>421.4</ele>
        <time>2022-03-23T17:20:59.000Z</time>
      </trkpt>
      <trkpt lat="43.53136" lon="6.11809">
        <ele>421.7</ele>
        <time>2022-03-23T17:21:07.000Z</time>
      </trkpt>
      <trkpt lat="43.5314" lon="6.11821">
        <ele>420.8</ele>
        <time>2022-03-23T17:21:16.000Z</time>
      </trkpt>
      <trkpt lat="43.53146" lon="6.11832">
        <ele>421.5</ele>
        <time>2022-03-23T17:21:22.000Z</time>
      </trkpt>
      <trkpt lat="43.53153" lon="6.11842">
        <ele>420.5</ele>
        <time>2022-03-23T17:21:30.000Z</time>
      </trkpt>
      <trkpt lat="43.5316" lon="6.1185">
        <ele>420.7</ele>
        <time>2022-03-23T17:21:36.000Z</time>
      </trkpt>
      <trkpt lat="43.53167" lon="6.11859">
        <ele>420.8</ele>
        <time>2022-03-23T17:21:44.000Z</time>
      </trkpt>
      <trkpt lat="43.53175" lon="6.11866">
        <ele>421.1</ele>
        <time>2022-03-23T17:21:52.000Z</time>
      </trkpt>
      <trkpt lat="43.53184" lon="6.11873">
        <ele>421.3</ele>
        <time>2022-03-23T17:22:03.000Z</time>
      </trkpt>
      <trkpt lat="43.53192" lon="6.11879">
        <ele>423</ele>
        <time>2022-03-23T17:22:12.000Z</time>
      </trkpt>
      <trkpt lat="43.532" lon="6.11885">
        <ele>423.2</ele>
        <time>2022-03-23T17:22:23.000Z</time>
      </trkpt>
      <trkpt lat="43.53206" lon="6.11896">
        <ele>424</ele>
        <time>2022-03-23T17:22:35.000Z</time>
      </trkpt>
      <trkpt lat="43.53213" lon="6.11906">
        <ele>426</ele>
        <time>2022-03-23T17:22:41.000Z</time>
      </trkpt>
      <trkpt lat="43.5322" lon="6.11916">
        <ele>426.7</ele>
        <time>2022-03-23T17:22:50.000Z</time>
      </trkpt>
      <trkpt lat="43.53227" lon="6.11923">
        <ele>427.9</ele>
        <time>2022-03-23T17:23:01.000Z</time>
      </trkpt>
      <trkpt lat="43.53236" lon="6.11929">
        <ele>429.5</ele>
        <time>2022-03-23T17:23:11.000Z</time>
      </trkpt>
      <trkpt lat="43.53246" lon="6.11929">
        <ele>432.3</ele>
        <time>2022-03-23T17:23:33.000Z</time>
      </trkpt>
      <trkpt lat="43.53256" lon="6.1193">
        <ele>433.3</ele>
        <time>2022-03-23T17:23:48.000Z</time>
      </trkpt>
      <trkpt lat="43.53265" lon="6.11933">
        <ele>434.6</ele>
        <time>2022-03-23T17:24:01.000Z</time>
      </trkpt>
      <trkpt lat="43.53274" lon="6.11934">
        <ele>434.9</ele>
        <time>2022-03-23T17:24:10.000Z</time>
      </trkpt>
      <trkpt lat="43.53284" lon="6.11936">
        <ele>437.1</ele>
        <time>2022-03-23T17:24:22.000Z</time>
      </trkpt>
      <trkpt lat="43.53293" lon="6.11936">
        <ele>438.5</ele>
        <time>2022-03-23T17:24:33.000Z</time>
      </trkpt>
      <trkpt lat="43.53303" lon="6.11935">
        <ele>440.2</ele>
        <time>2022-03-23T17:24:46.000Z</time>
      </trkpt>
      <trkpt lat="43.53311" lon="6.1193">
        <ele>441.2</ele>
        <time>2022-03-23T17:25:01.000Z</time>
      </trkpt>
      <trkpt lat="43.5332" lon="6.11936">
        <ele>442.9</ele>
        <time>2022-03-23T17:25:16.000Z</time>
      </trkpt>
      <trkpt lat="43.53329" lon="6.11942">
        <ele>443.2</ele>
        <time>2022-03-23T17:25:24.000Z</time>
      </trkpt>
      <trkpt lat="43.53336" lon="6.11949">
        <ele>443.8</ele>
        <time>2022-03-23T17:25:32.000Z</time>
      </trkpt>
      <trkpt lat="43.53345" lon="6.11956">
        <ele>443.5</ele>
        <time>2022-03-23T17:25:41.000Z</time>
      </trkpt>
      <trkpt lat="43.53351" lon="6.11967">
        <ele>444.1</ele>
        <time>2022-03-23T17:25:49.000Z</time>
      </trkpt>
      <trkpt lat="43.53359" lon="6.11973">
        <ele>444.4</ele>
        <time>2022-03-23T17:25:59.000Z</time>
      </trkpt>
      <trkpt lat="43.53367" lon="6.11981">
        <ele>444.3</ele>
        <time>2022-03-23T17:26:07.000Z</time>
      </trkpt>
      <trkpt lat="43.53375" lon="6.1199">
        <ele>443.3</ele>
        <time>2022-03-23T17:26:16.000Z</time>
      </trkpt>
      <trkpt lat="43.53382" lon="6.11998">
        <ele>442.4</ele>
        <time>2022-03-23T17:26:26.000Z</time>
      </trkpt>
      <trkpt lat="43.53389" lon="6.12008">
        <ele>441.3</ele>
        <time>2022-03-23T17:26:33.000Z</time>
      </trkpt>
      <trkpt lat="43.53397" lon="6.12014">
        <ele>440.1</ele>
        <time>2022-03-23T17:26:42.000Z</time>
      </trkpt>
      <trkpt lat="43.53405" lon="6.12021">
        <ele>439.4</ele>
        <time>2022-03-23T17:26:49.000Z</time>
      </trkpt>
      <trkpt lat="43.53412" lon="6.12031">
        <ele>438</ele>
        <time>2022-03-23T17:27:02.000Z</time>
      </trkpt>
      <trkpt lat="43.53421" lon="6.1203">
        <ele>438.5</ele>
        <time>2022-03-23T17:27:12.000Z</time>
      </trkpt>
      <trkpt lat="43.53419" lon="6.12042">
        <ele>438.2</ele>
        <time>2022-03-23T17:27:35.000Z</time>
      </trkpt>
      <trkpt lat="43.53424" lon="6.12031">
        <ele>438.3</ele>
        <time>2022-03-23T17:28:21.000Z</time>
      </trkpt>
      <trkpt lat="43.53418" lon="6.12042">
        <ele>437.3</ele>
        <time>2022-03-23T17:28:48.000Z</time>
      </trkpt>
      <trkpt lat="43.53425" lon="6.12032">
        <ele>437.7</ele>
        <time>2022-03-23T17:29:30.000Z</time>
      </trkpt>
      <trkpt lat="43.53426" lon="6.1202">
        <ele>438.2</ele>
        <time>2022-03-23T17:30:39.000Z</time>
      </trkpt>
      <trkpt lat="43.53424" lon="6.12007">
        <ele>437.7</ele>
        <time>2022-03-23T17:35:19.000Z</time>
      </trkpt>
      <trkpt lat="43.53428" lon="6.12018">
        <ele>438.6</ele>
        <time>2022-03-23T17:36:43.000Z</time>
      </trkpt>
    </trkseg>
  </trk>
</gpx>